DLH452 EDDM-KLAX
Flight info
| Callsign | DLH452 |
|---|---|
| Flight time | N/A |
| Altitude | 34000 |
| Route | INPUD2N INPUD Y102 UPALA Z109 BAMAS L604 GASKA DCT MASEK DCT PREXA DCT AMGOD DCT MIMVA L602 NALAX L46 ESHIN N110 USEKA/N0483F380 N110 ERKIT DCT AMLAD DCT SUNOT/M085F380 DCT 58N020W 59N030W 5930N04000W 60N050W DCT PIDSO DCT MIBNO/N0481F380 DCT TUNNI DCT KELMU/N0491F400 DCT 5730N09000W DCT KENRU Q827 ITREK/N0466F380 DCT HLN DCT BAM DCT MVA/N0446F360 DCT FRA/N0445F350 DCT REBRG IRNMN2 |
| Aircraft | A388/J-SADE2E3GHIJ3J4J5LM1OP2RWXYZ/LB1D1 |
Departure
| Time | N/A |
|---|---|
| Airport | Munich Airport (EDDM) |
Arrival
| Time | 2026-05-05 22:43 |
|---|---|
| Airport | Los Angeles International Airport (KLAX) |
| Time | Latitude | Longitude | Altitude | Speed | Heading |
|---|---|---|---|---|---|
| 2026-05-05 15:28 | 59.39129 | -35.94402 | 38473 ft | 459 kts | 277° |
| 2026-05-05 15:28 | 59.39396 | -36.00717 | 38476 ft | 460 kts | 277° |
| 2026-05-05 15:29 | 59.39915 | -36.13157 | 38466 ft | 460 kts | 276° |
| 2026-05-05 15:29 | 59.40458 | -36.26600 | 38461 ft | 461 kts | 276° |
| 2026-05-05 15:30 | 59.40958 | -36.39147 | 38468 ft | 461 kts | 276° |
| 2026-05-05 15:30 | 59.41436 | -36.51699 | 38463 ft | 462 kts | 276° |
| 2026-05-05 15:31 | 59.41905 | -36.64299 | 38464 ft | 462 kts | 276° |
| 2026-05-05 15:31 | 59.42365 | -36.76897 | 38458 ft | 463 kts | 276° |
| 2026-05-05 15:32 | 59.42816 | -36.89520 | 38457 ft | 464 kts | 275° |
| 2026-05-05 15:32 | 59.43254 | -37.02181 | 38461 ft | 465 kts | 275° |
| 2026-05-05 15:33 | 59.43681 | -37.14881 | 38467 ft | 466 kts | 275° |
| 2026-05-05 15:33 | 59.44099 | -37.27603 | 38443 ft | 467 kts | 275° |
| 2026-05-05 15:34 | 59.44502 | -37.40352 | 38416 ft | 469 kts | 275° |
| 2026-05-05 15:34 | 59.44890 | -37.53158 | 38372 ft | 469 kts | 275° |
| 2026-05-05 15:35 | 59.45272 | -37.65973 | 38334 ft | 470 kts | 275° |
| 2026-05-05 15:35 | 59.45641 | -37.78772 | 38294 ft | 469 kts | 275° |
| 2026-05-05 15:36 | 59.45995 | -37.91582 | 38252 ft | 469 kts | 274° |
| 2026-05-05 15:36 | 59.46337 | -38.04400 | 38226 ft | 468 kts | 274° |
| 2026-05-05 15:37 | 59.46668 | -38.17186 | 38213 ft | 468 kts | 274° |
| 2026-05-05 15:37 | 59.46984 | -38.29972 | 38202 ft | 468 kts | 274° |
| 2026-05-05 15:38 | 59.47287 | -38.42736 | 38194 ft | 468 kts | 274° |
| 2026-05-05 15:38 | 59.47580 | -38.55557 | 38192 ft | 469 kts | 274° |
| 2026-05-05 15:39 | 59.47861 | -38.68395 | 38196 ft | 471 kts | 273° |
| 2026-05-05 15:39 | 59.48127 | -38.81276 | 38194 ft | 472 kts | 273° |
| 2026-05-05 15:40 | 59.48384 | -38.94191 | 38200 ft | 474 kts | 273° |
| 2026-05-05 15:40 | 59.48625 | -39.07235 | 38203 ft | 475 kts | 272° |
| 2026-05-05 15:41 | 59.48861 | -39.20243 | 38210 ft | 476 kts | 272° |
| 2026-05-05 15:41 | 59.49085 | -39.33287 | 38201 ft | 477 kts | 272° |
| 2026-05-05 15:42 | 59.49291 | -39.46331 | 38581 ft | 478 kts | 272° |
| 2026-05-05 15:42 | 59.49388 | -39.52872 | 38915 ft | 477 kts | 272° |
| 2026-05-05 15:42 | 59.49484 | -39.59372 | 39221 ft | 477 kts | 272° |
| 2026-05-05 15:42 | 59.49581 | -39.65914 | 39489 ft | 477 kts | 272° |
| 2026-05-05 15:43 | 59.49676 | -39.72448 | 39743 ft | 478 kts | 272° |
| 2026-05-05 15:43 | 59.49767 | -39.78985 | 39992 ft | 479 kts | 272° |
| 2026-05-05 15:43 | 59.49857 | -39.85559 | 40181 ft | 480 kts | 272° |
| 2026-05-05 15:44 | 59.50026 | -39.98693 | 40178 ft | 474 kts | 272° |
| 2026-05-05 15:44 | 59.50723 | -40.11535 | 40173 ft | 476 kts | 281° |
| 2026-05-05 15:45 | 59.52040 | -40.24354 | 40146 ft | 476 kts | 281° |
| 2026-05-05 15:45 | 59.53046 | -40.35028 | 40139 ft | 478 kts | 280° |
| 2026-05-05 15:46 | 59.54181 | -40.47938 | 40138 ft | 480 kts | 279° |
| 2026-05-05 15:46 | 59.55294 | -40.60945 | 40136 ft | 481 kts | 279° |
| 2026-05-05 15:47 | 59.56390 | -40.73988 | 40151 ft | 484 kts | 279° |
| 2026-05-05 15:47 | 59.57477 | -40.87127 | 40154 ft | 486 kts | 279° |
| 2026-05-05 15:48 | 59.58553 | -41.00289 | 40156 ft | 487 kts | 279° |
| 2026-05-05 15:48 | 59.59619 | -41.13502 | 40151 ft | 487 kts | 279° |
| 2026-05-05 15:49 | 59.60670 | -41.26712 | 40149 ft | 487 kts | 278° |
| 2026-05-05 15:49 | 59.61708 | -41.39925 | 40138 ft | 487 kts | 278° |
| 2026-05-05 15:50 | 59.62733 | -41.53153 | 40131 ft | 486 kts | 278° |
| 2026-05-05 15:50 | 59.63742 | -41.66344 | 40122 ft | 485 kts | 278° |
| 2026-05-05 15:51 | 59.64734 | -41.79508 | 40116 ft | 484 kts | 278° |
| 2026-05-05 15:51 | 59.65712 | -41.92670 | 40103 ft | 484 kts | 278° |
| 2026-05-05 15:52 | 59.66677 | -42.05824 | 40097 ft | 483 kts | 278° |
| 2026-05-05 15:52 | 59.67626 | -42.18957 | 40091 ft | 482 kts | 278° |
| 2026-05-05 15:53 | 59.68561 | -42.32096 | 40083 ft | 482 kts | 277° |
| 2026-05-05 15:53 | 59.69483 | -42.45230 | 40082 ft | 482 kts | 277° |
| 2026-05-05 15:54 | 59.70393 | -42.58392 | 40078 ft | 483 kts | 277° |
| 2026-05-05 15:54 | 59.71292 | -42.71591 | 40066 ft | 485 kts | 277° |
| 2026-05-05 15:55 | 59.72179 | -42.84813 | 40077 ft | 486 kts | 277° |
| 2026-05-05 15:55 | 59.73061 | -42.98175 | 40085 ft | 488 kts | 276° |
| 2026-05-05 15:56 | 59.73930 | -43.11552 | 40099 ft | 490 kts | 276° |
| 2026-05-05 15:56 | 59.74790 | -43.24992 | 40106 ft | 492 kts | 276° |
| 2026-05-05 15:57 | 59.75637 | -43.38469 | 40102 ft | 493 kts | 276° |
| 2026-05-05 15:57 | 59.76477 | -43.52067 | 40110 ft | 493 kts | 276° |
| 2026-05-05 15:58 | 59.77293 | -43.65487 | 40106 ft | 493 kts | 276° |
| 2026-05-05 15:58 | 59.78098 | -43.78982 | 40104 ft | 492 kts | 276° |
| 2026-05-05 15:59 | 59.78890 | -43.92483 | 40105 ft | 492 kts | 276° |
| 2026-05-05 15:59 | 59.79671 | -44.06050 | 40102 ft | 491 kts | 276° |
| 2026-05-05 16:00 | 59.80434 | -44.19547 | 40094 ft | 491 kts | 276° |
| 2026-05-05 16:00 | 59.81182 | -44.33026 | 40093 ft | 491 kts | 275° |
| 2026-05-05 16:01 | 59.81912 | -44.46435 | 40080 ft | 491 kts | 275° |
| 2026-05-05 16:01 | 59.82634 | -44.59942 | 40062 ft | 492 kts | 275° |
| 2026-05-05 16:02 | 59.83346 | -44.73549 | 40068 ft | 492 kts | 275° |
| 2026-05-05 16:02 | 59.84040 | -44.87082 | 40056 ft | 493 kts | 274° |
| 2026-05-05 16:03 | 59.84720 | -45.00624 | 40053 ft | 493 kts | 274° |
| 2026-05-05 16:03 | 59.85390 | -45.14232 | 40059 ft | 494 kts | 274° |
| 2026-05-05 16:04 | 59.86046 | -45.27854 | 40065 ft | 495 kts | 274° |
| 2026-05-05 16:04 | 59.86689 | -45.41508 | 40079 ft | 496 kts | 274° |
| 2026-05-05 16:05 | 59.87319 | -45.55193 | 40069 ft | 497 kts | 274° |
| 2026-05-05 16:05 | 59.87937 | -45.68928 | 40078 ft | 498 kts | 274° |
| 2026-05-05 16:06 | 59.88541 | -45.82677 | 40079 ft | 499 kts | 273° |
| 2026-05-05 16:06 | 59.89131 | -45.96426 | 40081 ft | 499 kts | 273° |
| 2026-05-05 16:07 | 59.89706 | -46.10187 | 40078 ft | 498 kts | 273° |
| 2026-05-05 16:07 | 59.90266 | -46.23921 | 40078 ft | 497 kts | 273° |
| 2026-05-05 16:08 | 59.90812 | -46.37665 | 40060 ft | 497 kts | 273° |
| 2026-05-05 16:08 | 59.91339 | -46.51366 | 40057 ft | 497 kts | 272° |
| 2026-05-05 16:09 | 59.91858 | -46.65113 | 40040 ft | 496 kts | 272° |
| 2026-05-05 16:09 | 59.92360 | -46.78811 | 40028 ft | 496 kts | 272° |
| 2026-05-05 16:10 | 59.92852 | -46.92521 | 40020 ft | 496 kts | 272° |
| 2026-05-05 16:10 | 59.93321 | -47.06271 | 40012 ft | 498 kts | 271° |
| 2026-05-05 16:11 | 59.93781 | -47.20063 | 40027 ft | 500 kts | 271° |
| 2026-05-05 16:12 | 59.94669 | -47.47886 | 40056 ft | 506 kts | 271° |
| 2026-05-05 16:13 | 59.95699 | -47.83042 | 40081 ft | 509 kts | 271° |
| 2026-05-05 16:13 | 59.96088 | -47.97149 | 40090 ft | 510 kts | 271° |
| 2026-05-05 16:14 | 59.96821 | -48.25376 | 40077 ft | 508 kts | 270° |
| 2026-05-05 16:15 | 59.97492 | -48.53530 | 40041 ft | 507 kts | 270° |
| 2026-05-05 16:16 | 59.98098 | -48.81623 | 40018 ft | 506 kts | 270° |
| 2026-05-05 16:17 | 59.98514 | -49.02699 | 40000 ft | 507 kts | 269° |
| 2026-05-05 16:18 | 59.98899 | -49.23864 | 40002 ft | 509 kts | 269° |
| 2026-05-05 16:19 | 59.99255 | -49.45129 | 40010 ft | 512 kts | 269° |
| 2026-05-05 16:19 | 59.99578 | -49.66503 | 40020 ft | 516 kts | 269° |
| 2026-05-05 16:20 | 59.99992 | -49.95272 | 40053 ft | 520 kts | 269° |
| 2026-05-05 16:22 | 60.02671 | -50.31073 | 40045 ft | 522 kts | 279° |
| 2026-05-05 16:23 | 60.05206 | -50.59550 | 40023 ft | 518 kts | 277° |
| 2026-05-05 16:23 | 60.06803 | -50.78544 | 40008 ft | 516 kts | 277° |
| 2026-05-05 16:24 | 60.07972 | -50.92694 | 39991 ft | 516 kts | 277° |
| 2026-05-05 16:25 | 60.09708 | -51.13977 | 39977 ft | 515 kts | 277° |
| 2026-05-05 16:25 | 60.11396 | -51.35261 | 39978 ft | 516 kts | 277° |
| 2026-05-05 16:26 | 60.13621 | -51.63804 | 39955 ft | 519 kts | 276° |
| 2026-05-05 16:27 | 60.14709 | -51.78116 | 39957 ft | 522 kts | 276° |
| 2026-05-05 16:27 | 60.15786 | -51.92575 | 39941 ft | 524 kts | 276° |
| 2026-05-05 16:28 | 60.16853 | -52.07046 | 39956 ft | 526 kts | 276° |
| 2026-05-05 16:28 | 60.17908 | -52.21374 | 39963 ft | 526 kts | 276° |
| 2026-05-05 16:29 | 60.18946 | -52.35933 | 39978 ft | 527 kts | 276° |
| 2026-05-05 16:29 | 60.19958 | -52.50422 | 39985 ft | 527 kts | 276° |
| 2026-05-05 16:30 | 60.20963 | -52.64917 | 39984 ft | 526 kts | 275° |
| 2026-05-05 16:30 | 60.21948 | -52.79481 | 39971 ft | 525 kts | 275° |
| 2026-05-05 16:31 | 60.22923 | -52.94003 | 39958 ft | 523 kts | 275° |
| 2026-05-05 16:31 | 60.23877 | -53.08499 | 39960 ft | 521 kts | 275° |
| 2026-05-05 16:32 | 60.24809 | -53.22925 | 39933 ft | 520 kts | 275° |
| 2026-05-05 16:32 | 60.25730 | -53.37363 | 39920 ft | 519 kts | 275° |
| 2026-05-05 16:33 | 60.26630 | -53.51720 | 39907 ft | 519 kts | 275° |
| 2026-05-05 16:33 | 60.27502 | -53.66127 | 39904 ft | 518 kts | 275° |
| 2026-05-05 16:34 | 60.28378 | -53.80567 | 39905 ft | 520 kts | 275° |
| 2026-05-05 16:34 | 60.29243 | -53.95022 | 39904 ft | 519 kts | 274° |
| 2026-05-05 16:35 | 60.30078 | -54.09501 | 39902 ft | 521 kts | 274° |
| 2026-05-05 16:35 | 60.30913 | -54.24067 | 39929 ft | 525 kts | 274° |
| 2026-05-05 16:36 | 60.31730 | -54.38711 | 39939 ft | 526 kts | 274° |
| 2026-05-05 16:36 | 60.32527 | -54.53411 | 39929 ft | 529 kts | 274° |
| 2026-05-05 16:37 | 60.33314 | -54.68211 | 39939 ft | 529 kts | 274° |
| 2026-05-05 16:37 | 60.34081 | -54.82948 | 39930 ft | 529 kts | 274° |
| 2026-05-05 16:38 | 60.34837 | -54.97740 | 39917 ft | 528 kts | 274° |
| 2026-05-05 16:38 | 60.35572 | -55.12416 | 39890 ft | 524 kts | 274° |
| 2026-05-05 16:39 | 60.36307 | -55.27044 | 39867 ft | 521 kts | 273° |
| 2026-05-05 16:39 | 60.36997 | -55.41574 | 39848 ft | 520 kts | 273° |
| 2026-05-05 16:40 | 60.37656 | -55.56162 | 39843 ft | 521 kts | 273° |
| 2026-05-05 16:40 | 60.38332 | -55.70725 | 39851 ft | 521 kts | 273° |
| 2026-05-05 16:41 | 60.38983 | -55.85320 | 39844 ft | 521 kts | 272° |
| 2026-05-05 16:41 | 60.39620 | -55.99923 | 39835 ft | 522 kts | 273° |
| 2026-05-05 16:42 | 60.40240 | -56.14582 | 39827 ft | 524 kts | 272° |
| 2026-05-05 16:42 | 60.40853 | -56.29276 | 39808 ft | 525 kts | 272° |
| 2026-05-05 16:43 | 60.41432 | -56.44017 | 39831 ft | 525 kts | 272° |
| 2026-05-05 16:43 | 60.41997 | -56.58757 | 39824 ft | 525 kts | 272° |
| 2026-05-05 16:44 | 60.42550 | -56.73497 | 39823 ft | 525 kts | 272° |
| 2026-05-05 16:44 | 60.43099 | -56.88179 | 39825 ft | 524 kts | 272° |
| 2026-05-05 16:45 | 60.43624 | -57.02921 | 39829 ft | 524 kts | 272° |
| 2026-05-05 16:45 | 60.44130 | -57.17681 | 39806 ft | 526 kts | 271° |
| 2026-05-05 16:46 | 60.44621 | -57.32451 | 39791 ft | 525 kts | 272° |
| 2026-05-05 16:46 | 60.45112 | -57.47205 | 39785 ft | 525 kts | 271° |
| 2026-05-05 16:47 | 60.45562 | -57.61986 | 39775 ft | 527 kts | 271° |
| 2026-05-05 16:47 | 60.46004 | -57.76787 | 39774 ft | 526 kts | 271° |
| 2026-05-05 16:48 | 60.46453 | -57.91706 | 39749 ft | 529 kts | 271° |
| 2026-05-05 16:48 | 60.46866 | -58.06536 | 39762 ft | 531 kts | 271° |
| 2026-05-05 16:49 | 60.47481 | -58.21465 | 39753 ft | 533 kts | 274° |
| 2026-05-05 16:49 | 60.48156 | -58.36489 | 39750 ft | 531 kts | 273° |
| 2026-05-05 16:50 | 60.48806 | -58.51370 | 39740 ft | 529 kts | 272° |
| 2026-05-05 16:50 | 60.49345 | -58.66272 | 39747 ft | 529 kts | 272° |
| 2026-05-05 16:51 | 60.49886 | -58.81158 | 39744 ft | 529 kts | 272° |
| 2026-05-05 16:51 | 60.50431 | -58.95999 | 39737 ft | 528 kts | 272° |
| 2026-05-05 16:52 | 60.50944 | -59.10869 | 39730 ft | 528 kts | 272° |
| 2026-05-05 16:52 | 60.51461 | -59.25768 | 39738 ft | 529 kts | 272° |
| 2026-05-05 16:53 | 60.51954 | -59.40652 | 39701 ft | 528 kts | 272° |
| 2026-05-05 16:53 | 60.52402 | -59.55506 | 39698 ft | 527 kts | 271° |
| 2026-05-05 16:54 | 60.52870 | -59.70344 | 39680 ft | 526 kts | 272° |
| 2026-05-05 16:54 | 60.53311 | -59.85125 | 39650 ft | 524 kts | 271° |
| 2026-05-05 16:55 | 60.53725 | -59.99874 | 39628 ft | 522 kts | 272° |
| 2026-05-05 16:55 | 60.54128 | -60.14597 | 39612 ft | 521 kts | 271° |
| 2026-05-05 16:56 | 60.54508 | -60.29273 | 39612 ft | 523 kts | 271° |
| 2026-05-05 16:56 | 60.54875 | -60.44013 | 39637 ft | 525 kts | 271° |
| 2026-05-05 16:57 | 60.55230 | -60.58886 | 39657 ft | 528 kts | 270° |
| 2026-05-05 16:57 | 60.55558 | -60.73823 | 39672 ft | 530 kts | 270° |
| 2026-05-05 16:58 | 60.55897 | -60.88788 | 39684 ft | 531 kts | 270° |
| 2026-05-05 16:58 | 60.56209 | -61.03797 | 39682 ft | 530 kts | 270° |
| 2026-05-05 16:59 | 60.56490 | -61.18721 | 39664 ft | 528 kts | 270° |
| 2026-05-05 16:59 | 60.56755 | -61.33628 | 39659 ft | 527 kts | 271° |
| 2026-05-05 17:00 | 60.57008 | -61.48533 | 39652 ft | 528 kts | 271° |
| 2026-05-05 17:00 | 60.57257 | -61.63397 | 39631 ft | 525 kts | 270° |
| 2026-05-05 17:01 | 60.57486 | -61.78211 | 39609 ft | 524 kts | 269° |
| 2026-05-05 17:01 | 60.57607 | -61.90516 | 39600 ft | 524 kts | 269° |
| 2026-05-05 17:02 | 60.57810 | -62.05372 | 39605 ft | 525 kts | 270° |
| 2026-05-05 17:02 | 60.58023 | -62.20189 | 39608 ft | 525 kts | 270° |
| 2026-05-05 17:03 | 60.58192 | -62.34943 | 39586 ft | 522 kts | 269° |
| 2026-05-05 17:03 | 60.58306 | -62.49730 | 39590 ft | 522 kts | 268° |
| 2026-05-05 17:04 | 60.57824 | -62.64415 | 39585 ft | 520 kts | 261° |
| 2026-05-05 17:04 | 60.57035 | -62.79001 | 39585 ft | 521 kts | 262° |
| 2026-05-05 17:05 | 60.56296 | -62.93661 | 39597 ft | 522 kts | 262° |
| 2026-05-05 17:05 | 60.55534 | -63.08334 | 39596 ft | 523 kts | 262° |
| 2026-05-05 17:06 | 60.54731 | -63.23129 | 39605 ft | 524 kts | 262° |
| 2026-05-05 17:06 | 60.53909 | -63.37831 | 39601 ft | 524 kts | 261° |
| 2026-05-05 17:07 | 60.53079 | -63.52506 | 39601 ft | 523 kts | 262° |
| 2026-05-05 17:07 | 60.52255 | -63.67196 | 39619 ft | 525 kts | 262° |
| 2026-05-05 17:08 | 60.51395 | -63.81901 | 39621 ft | 524 kts | 261° |
| 2026-05-05 17:08 | 60.50527 | -63.96550 | 39606 ft | 521 kts | 262° |
| 2026-05-05 17:09 | 60.49623 | -64.11129 | 39586 ft | 519 kts | 262° |
| 2026-05-05 17:09 | 60.48747 | -64.25626 | 39588 ft | 517 kts | 262° |
| 2026-05-05 17:10 | 60.47825 | -64.40122 | 39598 ft | 521 kts | 261° |
| 2026-05-05 17:10 | 60.46859 | -64.54708 | 39587 ft | 523 kts | 261° |
| 2026-05-05 17:11 | 60.45948 | -64.69354 | 39574 ft | 525 kts | 261° |
| 2026-05-05 17:11 | 60.44987 | -64.84031 | 39577 ft | 525 kts | 261° |
| 2026-05-05 17:12 | 60.44018 | -64.98666 | 39563 ft | 523 kts | 260° |
| 2026-05-05 17:12 | 60.42996 | -65.13292 | 39552 ft | 526 kts | 260° |
| 2026-05-05 17:13 | 60.41982 | -65.27947 | 39543 ft | 527 kts | 260° |
| 2026-05-05 17:13 | 60.40950 | -65.42589 | 39538 ft | 526 kts | 259° |
| 2026-05-05 17:14 | 60.39890 | -65.57265 | 39536 ft | 527 kts | 260° |
| 2026-05-05 17:14 | 60.38812 | -65.71918 | 39534 ft | 528 kts | 260° |
| 2026-05-05 17:15 | 60.37735 | -65.86595 | 39524 ft | 529 kts | 260° |
| 2026-05-05 17:15 | 60.36625 | -66.01296 | 39530 ft | 530 kts | 260° |
| 2026-05-05 17:16 | 60.35486 | -66.16032 | 39539 ft | 532 kts | 260° |
| 2026-05-05 17:16 | 60.34332 | -66.30806 | 39557 ft | 534 kts | 260° |
| 2026-05-05 17:17 | 60.33179 | -66.45616 | 39574 ft | 534 kts | 259° |
| 2026-05-05 17:17 | 60.32001 | -66.60414 | 39588 ft | 535 kts | 259° |
| 2026-05-05 17:18 | 60.30795 | -66.75218 | 39588 ft | 533 kts | 259° |
| 2026-05-05 17:18 | 60.29576 | -66.89970 | 39532 ft | 533 kts | 258° |
| 2026-05-05 17:19 | 60.28360 | -67.04523 | 39542 ft | 522 kts | 259° |
| 2026-05-05 17:19 | 60.27135 | -67.18923 | 39542 ft | 522 kts | 258° |
| 2026-05-05 17:20 | 60.25901 | -67.33318 | 39542 ft | 520 kts | 258° |
| 2026-05-05 17:20 | 60.24656 | -67.47638 | 39541 ft | 519 kts | 259° |
| 2026-05-05 17:21 | 60.23399 | -67.61885 | 39536 ft | 517 kts | 258° |
| 2026-05-05 17:22 | 60.21496 | -67.83181 | 39512 ft | 512 kts | 259° |
| 2026-05-05 17:22 | 60.20209 | -67.97277 | 39489 ft | 513 kts | 258° |
| 2026-05-05 17:23 | 60.18912 | -68.11337 | 39484 ft | 512 kts | 259° |
| 2026-05-05 17:23 | 60.17624 | -68.25359 | 39477 ft | 509 kts | 258° |
| 2026-05-05 17:24 | 60.16307 | -68.39409 | 39525 ft | 517 kts | 258° |
| 2026-05-05 17:24 | 60.14952 | -68.53577 | 39517 ft | 515 kts | 258° |
| 2026-05-05 17:25 | 60.13584 | -68.67650 | 39516 ft | 516 kts | 258° |
| 2026-05-05 17:25 | 60.12200 | -68.81757 | 39515 ft | 513 kts | 257° |
| 2026-05-05 17:26 | 60.10820 | -68.95850 | 39514 ft | 515 kts | 257° |
| 2026-05-05 17:26 | 60.09404 | -69.09958 | 39523 ft | 517 kts | 257° |
| 2026-05-05 17:27 | 60.07962 | -69.24048 | 39575 ft | 517 kts | 257° |
| 2026-05-05 17:27 | 60.06518 | -69.38162 | 39584 ft | 517 kts | 257° |
| 2026-05-05 17:28 | 60.05053 | -69.52269 | 39583 ft | 518 kts | 257° |
| 2026-05-05 17:28 | 60.03590 | -69.66355 | 39591 ft | 517 kts | 257° |
| 2026-05-05 17:29 | 60.02112 | -69.80430 | 39577 ft | 516 kts | 257° |
| 2026-05-05 17:29 | 60.00629 | -69.94442 | 39569 ft | 514 kts | 257° |
| 2026-05-05 17:30 | 59.99351 | -70.08499 | 39566 ft | 514 kts | 264° |
| 2026-05-05 17:30 | 59.98832 | -70.22742 | 39561 ft | 515 kts | 265° |
| 2026-05-05 17:31 | 59.98290 | -70.36975 | 39557 ft | 514 kts | 265° |
| 2026-05-05 17:31 | 59.97668 | -70.51215 | 39545 ft | 516 kts | 264° |
| 2026-05-05 17:32 | 59.96987 | -70.65595 | 39554 ft | 517 kts | 264° |
| 2026-05-05 17:32 | 59.96286 | -70.79749 | 39560 ft | 516 kts | 264° |
| 2026-05-05 17:33 | 59.95557 | -70.94106 | 39561 ft | 517 kts | 263° |
| 2026-05-05 17:33 | 59.94823 | -71.08384 | 39559 ft | 517 kts | 263° |
| 2026-05-05 17:34 | 59.94065 | -71.22645 | 39547 ft | 516 kts | 263° |
| 2026-05-05 17:34 | 59.93319 | -71.36789 | 39561 ft | 516 kts | 263° |
| 2026-05-05 17:35 | 59.92550 | -71.51018 | 39544 ft | 516 kts | 261° |
| 2026-05-05 17:35 | 59.91751 | -71.65201 | 39542 ft | 515 kts | 262° |
| 2026-05-05 17:36 | 59.90957 | -71.79393 | 39537 ft | 515 kts | 262° |
| 2026-05-05 17:36 | 59.90118 | -71.93682 | 39546 ft | 517 kts | 262° |
| 2026-05-05 17:37 | 59.89285 | -72.07898 | 39541 ft | 516 kts | 262° |
| 2026-05-05 17:37 | 59.88442 | -72.21962 | 39543 ft | 515 kts | 261° |
| 2026-05-05 17:38 | 59.87569 | -72.36239 | 39563 ft | 515 kts | 261° |
| 2026-05-05 17:38 | 59.86827 | -72.48012 | 39561 ft | 516 kts | 261° |
| 2026-05-05 17:39 | 59.85937 | -72.62141 | 39568 ft | 513 kts | 261° |
| 2026-05-05 17:39 | 59.85029 | -72.76225 | 39567 ft | 513 kts | 260° |
| 2026-05-05 17:40 | 59.84108 | -72.90307 | 39556 ft | 512 kts | 260° |
| 2026-05-05 17:40 | 59.83163 | -73.04346 | 39561 ft | 513 kts | 261° |
| 2026-05-05 17:41 | 59.82212 | -73.18390 | 39559 ft | 512 kts | 260° |
| 2026-05-05 17:41 | 59.81249 | -73.32418 | 39566 ft | 513 kts | 260° |
| 2026-05-05 17:42 | 59.80262 | -73.46455 | 39562 ft | 513 kts | 260° |
| 2026-05-05 17:42 | 59.79270 | -73.60510 | 39570 ft | 515 kts | 259° |
| 2026-05-05 17:43 | 59.78260 | -73.74568 | 39584 ft | 515 kts | 259° |
| 2026-05-05 17:43 | 59.77232 | -73.88651 | 39591 ft | 515 kts | 259° |
| 2026-05-05 17:44 | 59.76169 | -74.02668 | 39586 ft | 514 kts | 259° |
| 2026-05-05 17:44 | 59.75112 | -74.16694 | 39578 ft | 513 kts | 259° |
| 2026-05-05 17:45 | 59.74035 | -74.30691 | 39584 ft | 513 kts | 258° |
| 2026-05-05 17:45 | 59.72954 | -74.44644 | 39574 ft | 512 kts | 259° |
| 2026-05-05 17:46 | 59.71883 | -74.58615 | 39582 ft | 513 kts | 259° |
| 2026-05-05 17:46 | 59.70761 | -74.72542 | 39587 ft | 512 kts | 258° |
| 2026-05-05 17:47 | 59.69616 | -74.86438 | 39624 ft | 511 kts | 258° |
| 2026-05-05 17:47 | 59.68483 | -75.00322 | 39629 ft | 510 kts | 258° |
| 2026-05-05 17:48 | 59.67324 | -75.14162 | 39635 ft | 509 kts | 258° |
| 2026-05-05 17:48 | 59.66151 | -75.28000 | 39637 ft | 511 kts | 258° |
| 2026-05-05 17:49 | 59.64958 | -75.41838 | 39647 ft | 511 kts | 258° |
| 2026-05-05 17:49 | 59.63768 | -75.55671 | 39649 ft | 510 kts | 257° |
| 2026-05-05 17:50 | 59.62565 | -75.69490 | 39655 ft | 511 kts | 257° |
| 2026-05-05 17:50 | 59.61338 | -75.83290 | 39665 ft | 510 kts | 257° |
| 2026-05-05 17:51 | 59.60088 | -75.97099 | 39674 ft | 511 kts | 257° |
| 2026-05-05 17:51 | 59.58834 | -76.10922 | 39683 ft | 511 kts | 257° |
| 2026-05-05 17:52 | 59.57560 | -76.24733 | 39678 ft | 511 kts | 257° |
| 2026-05-05 17:52 | 59.56263 | -76.38621 | 39685 ft | 512 kts | 257° |
| 2026-05-05 17:53 | 59.54964 | -76.52408 | 39679 ft | 511 kts | 257° |
| 2026-05-05 17:53 | 59.53651 | -76.66078 | 39677 ft | 511 kts | 257° |
| 2026-05-05 17:54 | 59.52320 | -76.79901 | 39672 ft | 510 kts | 257° |
| 2026-05-05 17:54 | 59.50977 | -76.93626 | 39677 ft | 510 kts | 256° |
| 2026-05-05 17:55 | 59.49627 | -77.07226 | 39677 ft | 509 kts | 256° |
| 2026-05-05 17:55 | 59.48266 | -77.20886 | 39667 ft | 508 kts | 256° |
| 2026-05-05 17:56 | 59.46874 | -77.34618 | 39668 ft | 508 kts | 256° |
| 2026-05-05 17:56 | 59.45487 | -77.48142 | 39668 ft | 508 kts | 256° |
| 2026-05-05 17:57 | 59.44074 | -77.61841 | 39670 ft | 509 kts | 256° |
| 2026-05-05 17:57 | 59.42641 | -77.75440 | 39669 ft | 508 kts | 256° |
| 2026-05-05 17:58 | 59.41211 | -77.89022 | 39664 ft | 508 kts | 256° |
| 2026-05-05 17:58 | 59.39765 | -78.02597 | 39664 ft | 508 kts | 255° |
| 2026-05-05 17:59 | 59.38296 | -78.16177 | 39663 ft | 508 kts | 255° |
| 2026-05-05 17:59 | 59.36816 | -78.29744 | 39643 ft | 508 kts | 255° |
| 2026-05-05 18:00 | 59.35493 | -78.41750 | 39644 ft | 508 kts | 255° |
| 2026-05-05 18:00 | 59.34141 | -78.53891 | 39633 ft | 508 kts | 255° |
| 2026-05-05 18:01 | 59.32629 | -78.67353 | 39629 ft | 508 kts | 255° |
| 2026-05-05 18:01 | 59.31103 | -78.80814 | 39621 ft | 508 kts | 255° |
| 2026-05-05 18:02 | 59.29562 | -78.94273 | 39623 ft | 508 kts | 255° |
| 2026-05-05 18:02 | 59.28000 | -79.07763 | 39626 ft | 508 kts | 255° |
| 2026-05-05 18:03 | 59.26435 | -79.21169 | 39626 ft | 508 kts | 255° |
| 2026-05-05 18:03 | 59.24844 | -79.34641 | 39630 ft | 508 kts | 254° |
| 2026-05-05 18:04 | 59.23243 | -79.48096 | 39625 ft | 508 kts | 255° |
| 2026-05-05 18:04 | 59.21637 | -79.61464 | 39631 ft | 509 kts | 255° |
| 2026-05-05 18:05 | 59.20013 | -79.74918 | 39627 ft | 509 kts | 255° |
| 2026-05-05 18:05 | 59.18396 | -79.88232 | 39632 ft | 509 kts | 255° |
| 2026-05-05 18:06 | 59.16770 | -80.01521 | 39635 ft | 509 kts | 255° |
| 2026-05-05 18:06 | 59.15051 | -80.14746 | 39649 ft | 510 kts | 254° |
| 2026-05-05 18:07 | 59.13404 | -80.28195 | 39644 ft | 510 kts | 255° |
| 2026-05-05 18:07 | 59.11767 | -80.41622 | 39646 ft | 510 kts | 255° |
| 2026-05-05 18:08 | 59.10095 | -80.55021 | 39642 ft | 510 kts | 254° |
| 2026-05-05 18:08 | 59.08398 | -80.68425 | 39643 ft | 510 kts | 254° |
| 2026-05-05 18:09 | 59.06690 | -80.81811 | 39647 ft | 511 kts | 254° |
| 2026-05-05 18:09 | 59.04964 | -80.95196 | 39650 ft | 511 kts | 254° |
| 2026-05-05 18:10 | 59.03220 | -81.08579 | 39651 ft | 512 kts | 254° |
| 2026-05-05 18:10 | 59.01459 | -81.21974 | 39655 ft | 512 kts | 253° |
| 2026-05-05 18:11 | 58.99687 | -81.35328 | 39647 ft | 511 kts | 253° |
| 2026-05-05 18:11 | 58.97899 | -81.48691 | 39620 ft | 512 kts | 253° |
| 2026-05-05 18:12 | 58.96101 | -81.62024 | 39613 ft | 511 kts | 253° |
| 2026-05-05 18:12 | 58.94291 | -81.75331 | 39607 ft | 511 kts | 253° |
| 2026-05-05 18:13 | 58.92465 | -81.88622 | 39601 ft | 510 kts | 253° |
| 2026-05-05 18:13 | 58.90628 | -82.01887 | 39593 ft | 511 kts | 253° |
| 2026-05-05 18:14 | 58.88774 | -82.15166 | 39596 ft | 511 kts | 253° |
| 2026-05-05 18:14 | 58.86909 | -82.28415 | 39596 ft | 511 kts | 252° |
| 2026-05-05 18:15 | 58.85029 | -82.41625 | 39595 ft | 511 kts | 252° |
| 2026-05-05 18:15 | 58.83136 | -82.54868 | 39589 ft | 511 kts | 252° |
| 2026-05-05 18:16 | 58.81230 | -82.68083 | 39590 ft | 511 kts | 252° |
| 2026-05-05 18:16 | 58.79307 | -82.81294 | 39589 ft | 512 kts | 252° |
| 2026-05-05 18:17 | 58.77370 | -82.94478 | 39594 ft | 511 kts | 252° |
| 2026-05-05 18:17 | 58.75422 | -83.07662 | 39594 ft | 511 kts | 252° |
| 2026-05-05 18:18 | 58.73782 | -83.18690 | 39582 ft | 511 kts | 252° |
| 2026-05-05 18:18 | 58.71809 | -83.31845 | 39584 ft | 511 kts | 252° |
| 2026-05-05 18:19 | 58.69823 | -83.44966 | 39574 ft | 511 kts | 252° |
| 2026-05-05 18:19 | 58.67824 | -83.58088 | 39565 ft | 511 kts | 252° |
| 2026-05-05 18:20 | 58.65810 | -83.71175 | 39564 ft | 511 kts | 252° |
| 2026-05-05 18:20 | 58.63787 | -83.84242 | 39558 ft | 510 kts | 252° |
| 2026-05-05 18:21 | 58.61755 | -83.97272 | 39563 ft | 510 kts | 252° |
| 2026-05-05 18:21 | 58.59708 | -84.10292 | 39577 ft | 510 kts | 252° |
| 2026-05-05 18:22 | 58.57642 | -84.23345 | 39580 ft | 510 kts | 251° |
| 2026-05-05 18:22 | 58.55567 | -84.36336 | 39577 ft | 510 kts | 251° |
| 2026-05-05 18:23 | 58.53476 | -84.49336 | 39581 ft | 511 kts | 251° |
| 2026-05-05 18:23 | 58.51372 | -84.62323 | 39582 ft | 511 kts | 251° |
| 2026-05-05 18:24 | 58.49257 | -84.75277 | 39579 ft | 511 kts | 251° |
| 2026-05-05 18:24 | 58.47125 | -84.88237 | 39581 ft | 511 kts | 251° |
| 2026-05-05 18:25 | 58.44983 | -85.01176 | 39581 ft | 511 kts | 251° |
| 2026-05-05 18:25 | 58.42826 | -85.14108 | 39590 ft | 511 kts | 251° |
| 2026-05-05 18:26 | 58.40656 | -85.27017 | 39604 ft | 511 kts | 251° |
| 2026-05-05 18:26 | 58.38475 | -85.39899 | 39637 ft | 511 kts | 251° |
| 2026-05-05 18:27 | 58.36317 | -85.52556 | 39642 ft | 512 kts | 251° |
| 2026-05-05 18:27 | 58.34104 | -85.65456 | 39608 ft | 513 kts | 251° |
| 2026-05-05 18:28 | 58.30759 | -85.84766 | 39614 ft | 514 kts | 251° |
| 2026-05-05 18:28 | 58.28505 | -85.97665 | 39618 ft | 514 kts | 250° |
| 2026-05-05 18:29 | 58.26237 | -86.10549 | 39615 ft | 514 kts | 250° |
| 2026-05-05 18:29 | 58.23955 | -86.23431 | 39606 ft | 514 kts | 250° |
| 2026-05-05 18:30 | 58.21663 | -86.36283 | 39606 ft | 514 kts | 250° |
| 2026-05-05 18:30 | 58.19358 | -86.49101 | 39608 ft | 514 kts | 250° |
| 2026-05-05 18:31 | 58.17048 | -86.61877 | 39604 ft | 513 kts | 250° |
| 2026-05-05 18:31 | 58.14717 | -86.74656 | 39606 ft | 513 kts | 250° |
| 2026-05-05 18:32 | 58.12386 | -86.87377 | 39599 ft | 512 kts | 250° |
| 2026-05-05 18:32 | 58.10040 | -87.00088 | 39598 ft | 511 kts | 250° |
| 2026-05-05 18:33 | 58.07682 | -87.12779 | 39592 ft | 511 kts | 249° |
| 2026-05-05 18:33 | 58.05315 | -87.25434 | 39586 ft | 511 kts | 249° |
| 2026-05-05 18:34 | 58.02938 | -87.38051 | 39586 ft | 510 kts | 249° |
| 2026-05-05 18:34 | 58.00548 | -87.50661 | 39585 ft | 510 kts | 249° |
| 2026-05-05 18:35 | 57.98146 | -87.63248 | 39584 ft | 510 kts | 249° |
| 2026-05-05 18:35 | 57.95726 | -87.75837 | 39583 ft | 510 kts | 249° |
| 2026-05-05 18:36 | 57.93301 | -87.88384 | 39624 ft | 510 kts | 249° |
| 2026-05-05 18:36 | 57.90881 | -88.00832 | 39638 ft | 510 kts | 249° |
| 2026-05-05 18:37 | 57.88428 | -88.13358 | 39633 ft | 511 kts | 249° |
| 2026-05-05 18:37 | 57.85960 | -88.25886 | 39667 ft | 511 kts | 249° |
| 2026-05-05 18:38 | 57.83490 | -88.38339 | 39682 ft | 511 kts | 249° |
| 2026-05-05 18:38 | 57.80984 | -88.50895 | 39685 ft | 511 kts | 249° |
| 2026-05-05 18:39 | 57.78486 | -88.63344 | 39690 ft | 511 kts | 249° |
| 2026-05-05 18:39 | 57.75964 | -88.75821 | 39697 ft | 512 kts | 248° |
| 2026-05-05 18:40 | 57.73431 | -88.88268 | 39696 ft | 511 kts | 248° |
| 2026-05-05 18:40 | 57.70887 | -89.00700 | 39697 ft | 511 kts | 248° |
| 2026-05-05 18:41 | 57.68339 | -89.13079 | 39721 ft | 510 kts | 248° |
| 2026-05-05 18:41 | 57.65786 | -89.25409 | 39698 ft | 509 kts | 248° |
| 2026-05-05 18:42 | 57.63222 | -89.37713 | 39713 ft | 509 kts | 248° |
| 2026-05-05 18:42 | 57.60644 | -89.50009 | 39718 ft | 508 kts | 248° |
| 2026-05-05 18:43 | 57.58062 | -89.62265 | 39698 ft | 507 kts | 248° |
| 2026-05-05 18:43 | 57.55458 | -89.74573 | 39696 ft | 508 kts | 248° |
| 2026-05-05 18:44 | 57.52880 | -89.86710 | 39714 ft | 507 kts | 248° |
| 2026-05-05 18:44 | 57.50241 | -89.98852 | 39727 ft | 507 kts | 246° |
| 2026-05-05 18:45 | 57.47315 | -90.10784 | 39735 ft | 507 kts | 243° |
| 2026-05-05 18:45 | 57.44273 | -90.22697 | 39745 ft | 507 kts | 244° |
| 2026-05-05 18:46 | 57.41301 | -90.34570 | 39746 ft | 507 kts | 244° |
| 2026-05-05 18:46 | 57.38340 | -90.46348 | 39757 ft | 508 kts | 244° |
| 2026-05-05 18:47 | 57.35341 | -90.58201 | 39761 ft | 508 kts | 244° |
| 2026-05-05 18:47 | 57.32324 | -90.70052 | 39767 ft | 508 kts | 244° |
| 2026-05-05 18:48 | 57.29299 | -90.81839 | 39774 ft | 507 kts | 244° |
| 2026-05-05 18:48 | 57.26246 | -90.93660 | 39794 ft | 506 kts | 244° |
| 2026-05-05 18:49 | 57.23202 | -91.05380 | 39834 ft | 505 kts | 244° |
| 2026-05-05 18:49 | 57.20404 | -91.16102 | 39843 ft | 505 kts | 244° |
| 2026-05-05 18:50 | 57.17346 | -91.27761 | 39878 ft | 505 kts | 244° |
| 2026-05-05 18:50 | 57.14297 | -91.39322 | 39909 ft | 505 kts | 244° |
| 2026-05-05 18:51 | 57.11215 | -91.50961 | 39917 ft | 506 kts | 244° |
| 2026-05-05 18:51 | 57.08097 | -91.62673 | 39918 ft | 507 kts | 243° |
| 2026-05-05 18:52 | 57.05003 | -91.74225 | 39924 ft | 507 kts | 243° |
| 2026-05-05 18:52 | 57.01874 | -91.85845 | 39938 ft | 507 kts | 243° |
| 2026-05-05 18:53 | 56.98720 | -91.97506 | 39943 ft | 507 kts | 243° |
| 2026-05-05 18:53 | 56.95591 | -92.09021 | 39942 ft | 507 kts | 243° |
| 2026-05-05 18:54 | 56.92412 | -92.20649 | 39940 ft | 507 kts | 243° |
| 2026-05-05 18:54 | 56.89783 | -92.30232 | 39939 ft | 507 kts | 243° |
| 2026-05-05 18:55 | 56.86610 | -92.41738 | 39939 ft | 507 kts | 243° |
| 2026-05-05 18:55 | 56.83426 | -92.53220 | 39938 ft | 507 kts | 243° |
| 2026-05-05 18:56 | 56.80229 | -92.64695 | 39941 ft | 507 kts | 243° |
| 2026-05-05 18:56 | 56.77015 | -92.76172 | 39948 ft | 508 kts | 243° |
| 2026-05-05 18:57 | 56.73793 | -92.87626 | 39945 ft | 508 kts | 243° |
| 2026-05-05 18:57 | 56.70558 | -92.99065 | 39941 ft | 508 kts | 243° |
| 2026-05-05 18:58 | 56.67313 | -93.10489 | 39941 ft | 508 kts | 243° |
| 2026-05-05 18:58 | 56.64059 | -93.21887 | 39938 ft | 508 kts | 243° |
| 2026-05-05 18:59 | 56.60786 | -93.33288 | 39942 ft | 509 kts | 242° |
| 2026-05-05 18:59 | 56.57507 | -93.44657 | 39950 ft | 509 kts | 242° |
| 2026-05-05 19:00 | 56.54214 | -93.56017 | 39957 ft | 509 kts | 242° |
| 2026-05-05 19:00 | 56.50912 | -93.67357 | 39954 ft | 509 kts | 242° |
| 2026-05-05 19:01 | 56.47592 | -93.78694 | 39949 ft | 509 kts | 242° |
| 2026-05-05 19:01 | 56.44261 | -93.90023 | 39950 ft | 509 kts | 242° |
| 2026-05-05 19:02 | 56.40926 | -94.01310 | 39952 ft | 510 kts | 242° |
| 2026-05-05 19:02 | 56.37574 | -94.12597 | 39958 ft | 510 kts | 242° |
| 2026-05-05 19:03 | 56.34217 | -94.23850 | 39955 ft | 510 kts | 242° |
| 2026-05-05 19:03 | 56.30844 | -94.35100 | 39954 ft | 510 kts | 242° |
| 2026-05-05 19:04 | 56.27470 | -94.46315 | 39955 ft | 510 kts | 242° |
| 2026-05-05 19:04 | 56.24078 | -94.57513 | 39952 ft | 510 kts | 242° |
| 2026-05-05 19:05 | 56.20679 | -94.68684 | 39955 ft | 509 kts | 242° |
| 2026-05-05 19:05 | 56.17271 | -94.79833 | 39950 ft | 509 kts | 242° |
| 2026-05-05 19:06 | 56.13856 | -94.90966 | 39952 ft | 509 kts | 242° |
| 2026-05-05 19:06 | 56.10432 | -95.02068 | 39952 ft | 509 kts | 241° |
| 2026-05-05 19:07 | 56.06995 | -95.13155 | 39948 ft | 509 kts | 241° |
| 2026-05-05 19:07 | 56.03556 | -95.24189 | 39953 ft | 509 kts | 241° |
| 2026-05-05 19:08 | 56.00125 | -95.35161 | 39958 ft | 509 kts | 241° |
| 2026-05-05 19:08 | 55.96660 | -95.46196 | 39965 ft | 510 kts | 241° |
| 2026-05-05 19:09 | 55.93183 | -95.57212 | 39957 ft | 510 kts | 241° |
| 2026-05-05 19:09 | 55.89686 | -95.68239 | 39969 ft | 511 kts | 241° |
| 2026-05-05 19:10 | 55.86178 | -95.79238 | 39982 ft | 511 kts | 241° |
| 2026-05-05 19:10 | 55.82661 | -95.90222 | 39984 ft | 511 kts | 241° |
| 2026-05-05 19:11 | 55.79137 | -96.01198 | 39979 ft | 511 kts | 241° |
| 2026-05-05 19:11 | 55.75603 | -96.12139 | 39979 ft | 511 kts | 241° |
| 2026-05-05 19:12 | 55.72037 | -96.23126 | 39979 ft | 510 kts | 240° |
| 2026-05-05 19:12 | 55.68509 | -96.33949 | 39989 ft | 510 kts | 240° |
| 2026-05-05 19:13 | 55.64965 | -96.44777 | 39983 ft | 510 kts | 240° |
| 2026-05-05 19:13 | 55.61398 | -96.55620 | 39993 ft | 510 kts | 240° |
| 2026-05-05 19:14 | 55.57821 | -96.66440 | 39998 ft | 510 kts | 240° |
| 2026-05-05 19:14 | 55.54210 | -96.77319 | 40000 ft | 510 kts | 240° |
| 2026-05-05 19:15 | 55.50610 | -96.88117 | 40003 ft | 510 kts | 240° |
| 2026-05-05 19:15 | 55.46995 | -96.98911 | 40006 ft | 511 kts | 240° |
| 2026-05-05 19:16 | 55.43376 | -97.09671 | 40012 ft | 511 kts | 240° |
| 2026-05-05 19:16 | 55.39739 | -97.20435 | 40009 ft | 511 kts | 240° |
| 2026-05-05 19:17 | 55.36098 | -97.31161 | 40012 ft | 512 kts | 240° |
| 2026-05-05 19:17 | 55.32439 | -97.41896 | 40024 ft | 512 kts | 240° |
| 2026-05-05 19:18 | 55.28779 | -97.52586 | 40035 ft | 511 kts | 240° |
| 2026-05-05 19:18 | 55.25103 | -97.63276 | 40031 ft | 511 kts | 240° |
| 2026-05-05 19:19 | 55.21420 | -97.73937 | 40029 ft | 512 kts | 240° |
| 2026-05-05 19:19 | 55.17725 | -97.84590 | 40031 ft | 512 kts | 240° |
| 2026-05-05 19:20 | 55.14020 | -97.95221 | 40034 ft | 511 kts | 240° |
| 2026-05-05 19:20 | 55.10317 | -98.05803 | 40033 ft | 510 kts | 240° |
| 2026-05-05 19:21 | 55.06608 | -98.16355 | 40023 ft | 510 kts | 240° |
| 2026-05-05 19:21 | 55.02892 | -98.26884 | 40019 ft | 509 kts | 240° |
| 2026-05-05 19:22 | 54.99174 | -98.37372 | 40019 ft | 509 kts | 239° |
| 2026-05-05 19:22 | 54.95447 | -98.47839 | 40020 ft | 509 kts | 239° |
| 2026-05-05 19:23 | 54.91708 | -98.58296 | 40023 ft | 510 kts | 239° |
| 2026-05-05 19:23 | 54.87951 | -98.68760 | 40024 ft | 510 kts | 239° |
| 2026-05-05 19:24 | 54.84185 | -98.79204 | 40027 ft | 510 kts | 239° |
| 2026-05-05 19:24 | 54.80409 | -98.89630 | 40027 ft | 510 kts | 239° |
| 2026-05-05 19:25 | 54.76621 | -99.00046 | 40031 ft | 510 kts | 239° |
| 2026-05-05 19:25 | 54.72828 | -99.10432 | 40030 ft | 511 kts | 239° |
| 2026-05-05 19:26 | 54.69017 | -99.20824 | 40035 ft | 512 kts | 239° |
| 2026-05-05 19:26 | 54.65192 | -99.31208 | 40043 ft | 512 kts | 239° |
| 2026-05-05 19:27 | 54.61373 | -99.41534 | 40053 ft | 512 kts | 239° |
| 2026-05-05 19:27 | 54.57520 | -99.51910 | 40054 ft | 513 kts | 239° |
| 2026-05-05 19:28 | 54.53660 | -99.62259 | 40076 ft | 514 kts | 239° |
| 2026-05-05 19:28 | 54.49786 | -99.72604 | 40078 ft | 514 kts | 238° |
| 2026-05-05 19:29 | 54.45905 | -99.82922 | 40084 ft | 514 kts | 238° |
| 2026-05-05 19:29 | 54.42017 | -99.93219 | 40082 ft | 514 kts | 238° |
| 2026-05-05 19:30 | 54.38116 | -100.03506 | 40081 ft | 514 kts | 238° |
| 2026-05-05 19:30 | 54.34212 | -100.13757 | 40079 ft | 513 kts | 238° |
| 2026-05-05 19:31 | 54.30316 | -100.23946 | 40075 ft | 513 kts | 238° |
| 2026-05-05 19:31 | 54.26395 | -100.34159 | 40076 ft | 513 kts | 238° |
| 2026-05-05 19:32 | 54.22477 | -100.44324 | 40079 ft | 512 kts | 238° |
| 2026-05-05 19:32 | 54.18550 | -100.54468 | 40078 ft | 512 kts | 238° |
| 2026-05-05 19:33 | 54.15249 | -100.62965 | 40080 ft | 512 kts | 238° |
| 2026-05-05 19:33 | 54.11312 | -100.73076 | 40079 ft | 512 kts | 238° |
| 2026-05-05 19:34 | 54.07368 | -100.83176 | 40084 ft | 512 kts | 238° |
| 2026-05-05 19:35 | 54.01432 | -100.98309 | 40080 ft | 513 kts | 238° |
| 2026-05-05 19:35 | 53.97344 | -101.08265 | 40088 ft | 514 kts | 235° |
| 2026-05-05 19:36 | 53.92929 | -101.17821 | 40086 ft | 515 kts | 231° |
| 2026-05-05 19:36 | 53.88335 | -101.27090 | 40078 ft | 514 kts | 232° |
| 2026-05-05 19:37 | 53.83771 | -101.36443 | 40078 ft | 514 kts | 232° |
| 2026-05-05 19:37 | 53.79199 | -101.45764 | 40078 ft | 514 kts | 232° |
| 2026-05-05 19:38 | 53.74615 | -101.55057 | 40079 ft | 515 kts | 232° |
| 2026-05-05 19:38 | 53.70021 | -101.64331 | 40081 ft | 515 kts | 231° |
| 2026-05-05 19:39 | 53.65416 | -101.73592 | 40090 ft | 515 kts | 231° |
| 2026-05-05 19:39 | 53.60808 | -101.82826 | 40091 ft | 515 kts | 231° |
| 2026-05-05 19:40 | 53.56189 | -101.92048 | 40092 ft | 515 kts | 231° |
| 2026-05-05 19:40 | 53.51562 | -102.01251 | 40093 ft | 515 kts | 231° |
| 2026-05-05 19:41 | 53.46924 | -102.10440 | 40092 ft | 515 kts | 231° |
| 2026-05-05 19:41 | 53.42285 | -102.19599 | 40100 ft | 515 kts | 231° |
| 2026-05-05 19:42 | 53.37638 | -102.28740 | 40099 ft | 515 kts | 231° |
| 2026-05-05 19:42 | 53.32985 | -102.37860 | 40098 ft | 514 kts | 231° |
| 2026-05-05 19:43 | 53.28338 | -102.46934 | 40089 ft | 514 kts | 231° |
| 2026-05-05 19:43 | 53.23674 | -102.56007 | 40098 ft | 514 kts | 231° |
| 2026-05-05 19:44 | 53.19015 | -102.65038 | 40096 ft | 513 kts | 231° |
| 2026-05-05 19:44 | 53.14354 | -102.74040 | 40094 ft | 513 kts | 231° |
| 2026-05-05 19:45 | 53.09689 | -102.83017 | 40091 ft | 512 kts | 231° |
| 2026-05-05 19:45 | 53.05021 | -102.91968 | 40092 ft | 512 kts | 231° |
| 2026-05-05 19:46 | 53.00351 | -103.00890 | 40095 ft | 512 kts | 231° |
| 2026-05-05 19:46 | 52.95682 | -103.09779 | 40096 ft | 512 kts | 231° |
| 2026-05-05 19:47 | 52.90980 | -103.18698 | 40098 ft | 513 kts | 231° |
| 2026-05-05 19:47 | 52.86282 | -103.27579 | 40100 ft | 513 kts | 231° |
| 2026-05-05 19:48 | 52.81568 | -103.36456 | 40103 ft | 513 kts | 231° |
| 2026-05-05 19:48 | 52.76848 | -103.45314 | 40107 ft | 514 kts | 231° |
| 2026-05-05 19:49 | 52.72122 | -103.54151 | 40108 ft | 514 kts | 231° |
| 2026-05-05 19:49 | 52.67384 | -103.62980 | 40110 ft | 514 kts | 230° |
| 2026-05-05 19:50 | 52.62644 | -103.71781 | 40113 ft | 514 kts | 230° |
| 2026-05-05 19:50 | 52.57892 | -103.80573 | 40113 ft | 514 kts | 231° |
| 2026-05-05 19:51 | 52.53127 | -103.89358 | 40113 ft | 514 kts | 230° |
| 2026-05-05 19:51 | 52.48368 | -103.98101 | 40105 ft | 514 kts | 230° |
| 2026-05-05 19:52 | 52.43591 | -104.06846 | 40110 ft | 514 kts | 230° |
| 2026-05-05 19:52 | 52.38810 | -104.15568 | 40112 ft | 514 kts | 230° |
| 2026-05-05 19:53 | 52.34023 | -104.24270 | 40110 ft | 514 kts | 230° |
| 2026-05-05 19:53 | 52.29233 | -104.32947 | 40111 ft | 514 kts | 230° |
| 2026-05-05 19:54 | 52.24433 | -104.41611 | 40109 ft | 514 kts | 230° |
| 2026-05-05 19:54 | 52.19632 | -104.50249 | 40107 ft | 514 kts | 230° |
| 2026-05-05 19:55 | 52.14819 | -104.58876 | 40108 ft | 514 kts | 230° |
| 2026-05-05 19:55 | 52.10004 | -104.67480 | 40096 ft | 515 kts | 230° |
| 2026-05-05 19:56 | 52.05178 | -104.76071 | 40105 ft | 514 kts | 230° |
| 2026-05-05 19:56 | 52.00355 | -104.84628 | 40104 ft | 514 kts | 230° |
| 2026-05-05 19:57 | 51.95509 | -104.93196 | 40107 ft | 514 kts | 230° |
| 2026-05-05 19:57 | 51.90673 | -105.01725 | 40107 ft | 514 kts | 230° |
| 2026-05-05 19:58 | 51.85827 | -105.10244 | 40107 ft | 514 kts | 229° |
| 2026-05-05 19:58 | 51.80926 | -105.18656 | 40105 ft | 514 kts | 230° |
| 2026-05-05 19:59 | 51.76086 | -105.27148 | 40106 ft | 513 kts | 230° |
| 2026-05-05 19:59 | 51.71230 | -105.35601 | 40103 ft | 513 kts | 230° |
| 2026-05-05 20:00 | 51.66362 | -105.44013 | 40103 ft | 514 kts | 229° |
| 2026-05-05 20:00 | 51.61478 | -105.52416 | 40107 ft | 514 kts | 229° |
| 2026-05-05 20:01 | 51.56579 | -105.60818 | 40120 ft | 515 kts | 229° |
| 2026-05-05 20:01 | 51.51636 | -105.69268 | 40127 ft | 516 kts | 229° |
| 2026-05-05 20:02 | 51.46746 | -105.77597 | 40133 ft | 517 kts | 229° |
| 2026-05-05 20:02 | 51.41809 | -105.85980 | 40138 ft | 517 kts | 229° |
| 2026-05-05 20:03 | 51.36864 | -105.94348 | 40139 ft | 517 kts | 229° |
| 2026-05-05 20:03 | 51.31880 | -106.02752 | 40141 ft | 517 kts | 229° |
| 2026-05-05 20:04 | 51.26941 | -106.11053 | 40136 ft | 518 kts | 229° |
| 2026-05-05 20:04 | 51.21972 | -106.19377 | 40138 ft | 517 kts | 229° |
| 2026-05-05 20:05 | 51.17030 | -106.27627 | 40136 ft | 517 kts | 229° |
| 2026-05-05 20:05 | 51.12247 | -106.35588 | 40132 ft | 516 kts | 229° |
| 2026-05-05 20:06 | 51.07279 | -106.43828 | 40131 ft | 516 kts | 229° |
| 2026-05-05 20:06 | 51.02310 | -106.52042 | 40125 ft | 516 kts | 229° |
| 2026-05-05 20:07 | 50.97332 | -106.60245 | 40115 ft | 515 kts | 229° |
| 2026-05-05 20:07 | 50.92353 | -106.68424 | 40115 ft | 515 kts | 229° |
| 2026-05-05 20:08 | 50.87370 | -106.76580 | 40124 ft | 515 kts | 229° |
| 2026-05-05 20:08 | 50.82375 | -106.84730 | 40127 ft | 515 kts | 229° |
| 2026-05-05 20:09 | 50.77408 | -106.92809 | 40125 ft | 516 kts | 229° |
| 2026-05-05 20:09 | 50.72365 | -107.00982 | 40130 ft | 516 kts | 229° |
| 2026-05-05 20:10 | 50.67354 | -107.09079 | 40129 ft | 517 kts | 229° |
| 2026-05-05 20:10 | 50.63178 | -107.15806 | 40131 ft | 516 kts | 229° |
| 2026-05-05 20:11 | 50.58155 | -107.23873 | 40130 ft | 517 kts | 229° |
| 2026-05-05 20:11 | 50.53114 | -107.31944 | 40131 ft | 517 kts | 229° |
| 2026-05-05 20:12 | 50.48071 | -107.39990 | 40129 ft | 516 kts | 229° |
| 2026-05-05 20:12 | 50.43025 | -107.48016 | 40129 ft | 516 kts | 229° |
| 2026-05-05 20:13 | 50.37977 | -107.56020 | 40128 ft | 516 kts | 229° |
| 2026-05-05 20:13 | 50.32919 | -107.64016 | 40125 ft | 517 kts | 229° |
| 2026-05-05 20:14 | 50.27669 | -107.71731 | 40132 ft | 520 kts | 223° |
| 2026-05-05 20:14 | 50.22019 | -107.78814 | 40128 ft | 521 kts | 222° |
| 2026-05-05 20:15 | 50.16389 | -107.85913 | 40131 ft | 521 kts | 222° |
| 2026-05-05 20:15 | 50.10737 | -107.93045 | 40136 ft | 521 kts | 222° |
| 2026-05-05 20:16 | 50.05093 | -108.00142 | 40135 ft | 521 kts | 222° |
| 2026-05-05 20:16 | 49.99444 | -108.07215 | 40133 ft | 521 kts | 222° |
| 2026-05-05 20:17 | 49.93802 | -108.14255 | 40137 ft | 520 kts | 222° |
| 2026-05-05 20:17 | 49.88154 | -108.21281 | 40135 ft | 520 kts | 222° |
| 2026-05-05 20:18 | 49.82499 | -108.28293 | 40137 ft | 520 kts | 222° |
| 2026-05-05 20:18 | 49.76844 | -108.35284 | 40125 ft | 521 kts | 222° |
| 2026-05-05 20:19 | 49.71183 | -108.42260 | 40134 ft | 520 kts | 222° |
| 2026-05-05 20:19 | 49.65516 | -108.49223 | 40139 ft | 520 kts | 222° |
| 2026-05-05 20:20 | 49.59867 | -108.56144 | 40139 ft | 520 kts | 222° |
| 2026-05-05 20:20 | 49.54178 | -108.63093 | 40136 ft | 520 kts | 222° |
| 2026-05-05 20:21 | 49.48495 | -108.70011 | 40135 ft | 520 kts | 222° |
| 2026-05-05 20:21 | 49.42816 | -108.76903 | 40142 ft | 520 kts | 222° |
| 2026-05-05 20:22 | 49.37135 | -108.83777 | 40142 ft | 520 kts | 221° |
| 2026-05-05 20:22 | 49.31447 | -108.90640 | 40152 ft | 520 kts | 221° |
| 2026-05-05 20:23 | 49.25754 | -108.97487 | 40149 ft | 520 kts | 221° |
| 2026-05-05 20:23 | 49.20017 | -109.04365 | 40155 ft | 521 kts | 221° |
| 2026-05-05 20:24 | 49.14338 | -109.11154 | 40160 ft | 522 kts | 221° |
| 2026-05-05 20:24 | 49.08616 | -109.17975 | 40168 ft | 522 kts | 221° |
| 2026-05-05 20:25 | 49.02895 | -109.24774 | 40168 ft | 521 kts | 221° |
| 2026-05-05 20:25 | 48.97168 | -109.31559 | 40165 ft | 521 kts | 221° |
| 2026-05-05 20:26 | 48.91444 | -109.38319 | 40164 ft | 520 kts | 221° |
| 2026-05-05 20:26 | 48.85691 | -109.45095 | 40160 ft | 520 kts | 221° |
| 2026-05-05 20:27 | 48.80016 | -109.51758 | 40156 ft | 519 kts | 221° |
| 2026-05-05 20:27 | 48.74253 | -109.58506 | 40154 ft | 519 kts | 221° |
| 2026-05-05 20:28 | 48.68536 | -109.65180 | 40156 ft | 519 kts | 221° |
| 2026-05-05 20:28 | 48.62820 | -109.71833 | 40156 ft | 519 kts | 221° |
| 2026-05-05 20:29 | 48.57100 | -109.78471 | 40154 ft | 518 kts | 221° |
| 2026-05-05 20:29 | 48.51412 | -109.85052 | 40155 ft | 518 kts | 221° |
| 2026-05-05 20:30 | 48.45685 | -109.91660 | 40155 ft | 519 kts | 221° |
| 2026-05-05 20:30 | 48.39916 | -109.98296 | 40158 ft | 518 kts | 221° |
| 2026-05-05 20:31 | 48.34217 | -110.04832 | 40151 ft | 519 kts | 221° |
| 2026-05-05 20:31 | 48.28439 | -110.11441 | 40154 ft | 519 kts | 221° |
| 2026-05-05 20:32 | 48.22690 | -110.17998 | 40158 ft | 519 kts | 221° |
| 2026-05-05 20:32 | 48.16934 | -110.24542 | 40150 ft | 519 kts | 221° |
| 2026-05-05 20:33 | 48.11214 | -110.31027 | 40146 ft | 519 kts | 221° |
| 2026-05-05 20:33 | 48.05450 | -110.37544 | 40144 ft | 519 kts | 221° |
| 2026-05-05 20:34 | 47.99683 | -110.44045 | 40144 ft | 519 kts | 221° |
| 2026-05-05 20:34 | 47.93907 | -110.50537 | 40151 ft | 519 kts | 221° |
| 2026-05-05 20:35 | 47.88134 | -110.57014 | 40151 ft | 520 kts | 221° |
| 2026-05-05 20:35 | 47.82345 | -110.63478 | 40148 ft | 520 kts | 221° |
| 2026-05-05 20:36 | 47.76558 | -110.69925 | 40147 ft | 520 kts | 221° |
| 2026-05-05 20:36 | 47.70766 | -110.76368 | 40146 ft | 520 kts | 221° |
| 2026-05-05 20:37 | 47.64964 | -110.82805 | 40150 ft | 521 kts | 221° |
| 2026-05-05 20:37 | 47.59154 | -110.89216 | 40161 ft | 521 kts | 221° |
| 2026-05-05 20:38 | 47.53330 | -110.95634 | 40164 ft | 522 kts | 220° |
| 2026-05-05 20:38 | 47.47492 | -111.02045 | 40161 ft | 523 kts | 221° |
| 2026-05-05 20:39 | 47.41648 | -111.08450 | 40162 ft | 523 kts | 221° |
| 2026-05-05 20:39 | 47.35797 | -111.14826 | 40164 ft | 523 kts | 221° |
| 2026-05-05 20:40 | 47.29937 | -111.21216 | 40167 ft | 524 kts | 221° |
| 2026-05-05 20:40 | 47.24085 | -111.27589 | 40175 ft | 524 kts | 221° |
| 2026-05-05 20:41 | 47.18216 | -111.33948 | 40172 ft | 523 kts | 221° |
| 2026-05-05 20:41 | 47.12360 | -111.40269 | 40165 ft | 522 kts | 220° |
| 2026-05-05 20:42 | 47.06491 | -111.46584 | 40155 ft | 523 kts | 221° |
| 2026-05-05 20:42 | 47.00628 | -111.52894 | 40156 ft | 523 kts | 221° |
| 2026-05-05 20:43 | 46.94741 | -111.59189 | 40146 ft | 524 kts | 221° |
| 2026-05-05 20:43 | 46.88870 | -111.65465 | 40152 ft | 525 kts | 221° |
| 2026-05-05 20:44 | 46.82944 | -111.71786 | 40150 ft | 526 kts | 221° |
| 2026-05-05 20:44 | 46.77032 | -111.78065 | 40148 ft | 526 kts | 220° |
| 2026-05-05 20:45 | 46.68147 | -111.87459 | 40140 ft | 526 kts | 221° |
| 2026-05-05 20:45 | 46.62236 | -111.93720 | 40140 ft | 525 kts | 220° |
| 2026-05-05 20:46 | 46.56154 | -111.99532 | 40137 ft | 528 kts | 217° |
| 2026-05-05 20:46 | 46.49908 | -112.05264 | 40115 ft | 527 kts | 218° |
| 2026-05-05 20:47 | 46.43730 | -112.10991 | 40121 ft | 528 kts | 217° |
| 2026-05-05 20:47 | 46.37546 | -112.16710 | 40120 ft | 527 kts | 217° |
| 2026-05-05 20:48 | 46.31342 | -112.22397 | 40117 ft | 530 kts | 217° |
| 2026-05-05 20:48 | 46.25113 | -112.28086 | 40111 ft | 530 kts | 217° |
| 2026-05-05 20:49 | 46.18897 | -112.33773 | 40097 ft | 530 kts | 217° |
| 2026-05-05 20:49 | 46.12666 | -112.39476 | 40085 ft | 529 kts | 217° |
| 2026-05-05 20:50 | 46.07458 | -112.44230 | 40064 ft | 529 kts | 217° |
| 2026-05-05 20:50 | 46.01226 | -112.49845 | 40063 ft | 529 kts | 217° |
| 2026-05-05 20:51 | 45.94996 | -112.55472 | 40062 ft | 529 kts | 217° |
| 2026-05-05 20:51 | 45.88763 | -112.61091 | 40078 ft | 529 kts | 217° |
| 2026-05-05 20:52 | 45.82517 | -112.66704 | 40056 ft | 530 kts | 217° |
| 2026-05-05 20:52 | 45.76304 | -112.72266 | 40065 ft | 529 kts | 217° |
| 2026-05-05 20:53 | 45.70016 | -112.77908 | 40056 ft | 530 kts | 217° |
| 2026-05-05 20:53 | 45.63758 | -112.83484 | 40065 ft | 530 kts | 217° |
| 2026-05-05 20:54 | 45.57498 | -112.89040 | 40046 ft | 529 kts | 217° |
| 2026-05-05 20:54 | 45.51246 | -112.94594 | 40035 ft | 530 kts | 217° |
| 2026-05-05 20:55 | 45.44983 | -113.00128 | 40024 ft | 530 kts | 216° |
| 2026-05-05 20:55 | 45.38698 | -113.05672 | 40021 ft | 531 kts | 217° |
| 2026-05-05 20:56 | 45.32413 | -113.11211 | 40024 ft | 532 kts | 216° |
| 2026-05-05 20:56 | 45.26125 | -113.16722 | 40024 ft | 531 kts | 216° |
| 2026-05-05 20:57 | 45.19825 | -113.22221 | 40012 ft | 531 kts | 216° |
| 2026-05-05 20:57 | 45.13586 | -113.27681 | 39999 ft | 531 kts | 216° |
| 2026-05-05 20:58 | 45.07586 | -113.32910 | 39995 ft | 531 kts | 216° |
| 2026-05-05 20:58 | 45.01281 | -113.38382 | 39991 ft | 531 kts | 216° |
| 2026-05-05 20:59 | 44.94986 | -113.43840 | 39990 ft | 532 kts | 216° |
| 2026-05-05 20:59 | 44.88690 | -113.49281 | 39990 ft | 532 kts | 216° |
| 2026-05-05 21:00 | 44.82346 | -113.54747 | 39979 ft | 533 kts | 216° |
| 2026-05-05 21:00 | 44.76032 | -113.60177 | 39978 ft | 532 kts | 216° |
| 2026-05-05 21:01 | 44.69712 | -113.65588 | 39969 ft | 531 kts | 215° |
| 2026-05-05 21:01 | 44.63392 | -113.70991 | 39953 ft | 532 kts | 215° |
| 2026-05-05 21:02 | 44.57059 | -113.76396 | 39960 ft | 532 kts | 215° |
| 2026-05-05 21:02 | 44.50734 | -113.81775 | 39962 ft | 532 kts | 215° |
| 2026-05-05 21:03 | 44.44414 | -113.87135 | 39952 ft | 531 kts | 215° |
| 2026-05-05 21:03 | 44.38086 | -113.92487 | 39942 ft | 532 kts | 215° |
| 2026-05-05 21:04 | 44.31759 | -113.97829 | 39935 ft | 532 kts | 215° |
| 2026-05-05 21:04 | 44.25419 | -114.03169 | 39928 ft | 532 kts | 215° |
| 2026-05-05 21:05 | 44.19090 | -114.08483 | 39924 ft | 531 kts | 215° |
| 2026-05-05 21:05 | 44.12762 | -114.13788 | 39913 ft | 531 kts | 215° |
| 2026-05-05 21:06 | 44.06430 | -114.19078 | 39921 ft | 531 kts | 215° |
| 2026-05-05 21:06 | 44.00100 | -114.24354 | 39929 ft | 531 kts | 215° |
| 2026-05-05 21:07 | 43.93762 | -114.29627 | 39947 ft | 531 kts | 215° |
| 2026-05-05 21:07 | 43.87424 | -114.34880 | 39945 ft | 530 kts | 214° |
| 2026-05-05 21:08 | 43.81094 | -114.40107 | 39944 ft | 530 kts | 214° |
| 2026-05-05 21:08 | 43.74751 | -114.45344 | 39946 ft | 530 kts | 214° |
| 2026-05-05 21:09 | 43.68418 | -114.50558 | 39944 ft | 530 kts | 214° |
| 2026-05-05 21:09 | 43.62086 | -114.55761 | 39947 ft | 530 kts | 214° |
| 2026-05-05 21:10 | 43.55752 | -114.60950 | 39933 ft | 529 kts | 214° |
| 2026-05-05 21:10 | 43.49412 | -114.66132 | 39933 ft | 529 kts | 214° |
| 2026-05-05 21:11 | 43.43074 | -114.71292 | 39935 ft | 529 kts | 214° |
| 2026-05-05 21:11 | 43.36739 | -114.76443 | 39935 ft | 529 kts | 214° |
| 2026-05-05 21:12 | 43.30404 | -114.81582 | 39924 ft | 529 kts | 214° |
| 2026-05-05 21:12 | 43.24072 | -114.86708 | 39927 ft | 528 kts | 213° |
| 2026-05-05 21:13 | 43.17733 | -114.91822 | 39918 ft | 528 kts | 213° |
| 2026-05-05 21:13 | 43.11399 | -114.96917 | 39915 ft | 528 kts | 213° |
| 2026-05-05 21:14 | 43.05070 | -115.02003 | 39910 ft | 527 kts | 213° |
| 2026-05-05 21:14 | 42.98740 | -115.07073 | 39911 ft | 527 kts | 213° |
| 2026-05-05 21:15 | 42.92438 | -115.12111 | 39910 ft | 527 kts | 213° |
| 2026-05-05 21:15 | 42.86078 | -115.17183 | 39904 ft | 528 kts | 213° |
| 2026-05-05 21:16 | 42.79738 | -115.22227 | 39905 ft | 528 kts | 213° |
| 2026-05-05 21:16 | 42.73395 | -115.27260 | 39905 ft | 528 kts | 213° |
| 2026-05-05 21:17 | 42.67045 | -115.32284 | 39906 ft | 528 kts | 213° |
| 2026-05-05 21:17 | 42.60696 | -115.37299 | 39895 ft | 528 kts | 212° |
| 2026-05-05 21:18 | 42.54334 | -115.42311 | 39895 ft | 528 kts | 212° |
| 2026-05-05 21:18 | 42.47975 | -115.47310 | 39898 ft | 528 kts | 212° |
| 2026-05-05 21:19 | 42.41612 | -115.52299 | 39897 ft | 529 kts | 212° |
| 2026-05-05 21:19 | 42.35206 | -115.57313 | 39893 ft | 529 kts | 212° |
| 2026-05-05 21:20 | 42.28879 | -115.62252 | 39892 ft | 529 kts | 212° |
| 2026-05-05 21:20 | 42.22506 | -115.67214 | 39892 ft | 529 kts | 212° |
| 2026-05-05 21:21 | 42.16125 | -115.72169 | 39894 ft | 529 kts | 212° |
| 2026-05-05 21:21 | 42.09742 | -115.77117 | 39895 ft | 530 kts | 211° |
| 2026-05-05 21:22 | 42.03307 | -115.82091 | 39904 ft | 530 kts | 211° |
| 2026-05-05 21:22 | 41.96912 | -115.87023 | 39914 ft | 530 kts | 211° |
| 2026-05-05 21:23 | 41.90504 | -115.91955 | 39921 ft | 531 kts | 211° |
| 2026-05-05 21:23 | 41.84092 | -115.96877 | 39920 ft | 531 kts | 211° |
| 2026-05-05 21:24 | 41.77676 | -116.01787 | 39923 ft | 531 kts | 211° |
| 2026-05-05 21:24 | 41.71264 | -116.06691 | 39927 ft | 531 kts | 211° |
| 2026-05-05 21:25 | 41.64853 | -116.11577 | 39930 ft | 530 kts | 211° |
| 2026-05-05 21:25 | 41.58444 | -116.16449 | 39933 ft | 530 kts | 211° |
| 2026-05-05 21:26 | 41.52030 | -116.21316 | 39941 ft | 530 kts | 211° |
| 2026-05-05 21:26 | 41.45622 | -116.26167 | 39935 ft | 529 kts | 211° |
| 2026-05-05 21:27 | 41.40301 | -116.30190 | 39939 ft | 530 kts | 211° |
| 2026-05-05 21:27 | 41.33890 | -116.35028 | 39944 ft | 529 kts | 211° |
| 2026-05-05 21:28 | 41.27481 | -116.39847 | 39938 ft | 529 kts | 211° |
| 2026-05-05 21:28 | 41.21072 | -116.44655 | 39946 ft | 528 kts | 210° |
| 2026-05-05 21:29 | 41.14672 | -116.49449 | 39943 ft | 528 kts | 210° |
| 2026-05-05 21:29 | 41.08279 | -116.54223 | 39948 ft | 528 kts | 210° |
| 2026-05-05 21:30 | 41.01871 | -116.59001 | 39949 ft | 528 kts | 210° |
| 2026-05-05 21:30 | 40.95467 | -116.63759 | 39952 ft | 528 kts | 210° |
| 2026-05-05 21:31 | 40.89067 | -116.68512 | 39959 ft | 528 kts | 210° |
| 2026-05-05 21:31 | 40.82666 | -116.73256 | 39966 ft | 527 kts | 210° |
| 2026-05-05 21:32 | 40.76263 | -116.77990 | 39977 ft | 527 kts | 210° |
| 2026-05-05 21:32 | 40.69864 | -116.82711 | 39981 ft | 527 kts | 210° |
| 2026-05-05 21:33 | 40.63478 | -116.87416 | 39968 ft | 526 kts | 210° |
| 2026-05-05 21:33 | 40.57054 | -116.92042 | 39961 ft | 526 kts | 207° |
| 2026-05-05 21:34 | 40.50372 | -116.95963 | 39958 ft | 526 kts | 203° |
| 2026-05-05 21:34 | 40.43649 | -116.99777 | 39960 ft | 526 kts | 203° |
| 2026-05-05 21:35 | 40.36933 | -117.03607 | 39966 ft | 527 kts | 203° |
| 2026-05-05 21:35 | 40.30211 | -117.07428 | 39981 ft | 527 kts | 203° |
| 2026-05-05 21:36 | 40.23486 | -117.11237 | 39979 ft | 526 kts | 203° |
| 2026-05-05 21:36 | 40.16757 | -117.15043 | 39981 ft | 527 kts | 203° |
| 2026-05-05 21:37 | 40.10030 | -117.18836 | 39978 ft | 527 kts | 203° |
| 2026-05-05 21:37 | 40.03288 | -117.22635 | 39988 ft | 528 kts | 202° |
| 2026-05-05 21:38 | 39.96549 | -117.26421 | 40017 ft | 528 kts | 202° |
| 2026-05-05 21:38 | 39.89858 | -117.30168 | 40031 ft | 527 kts | 202° |
| 2026-05-05 21:39 | 39.83133 | -117.33929 | 40031 ft | 526 kts | 202° |
| 2026-05-05 21:39 | 39.76413 | -117.37680 | 40026 ft | 525 kts | 202° |
| 2026-05-05 21:40 | 39.69693 | -117.41422 | 40038 ft | 525 kts | 202° |
| 2026-05-05 21:40 | 39.62990 | -117.45147 | 40030 ft | 525 kts | 202° |
| 2026-05-05 21:41 | 39.56273 | -117.48872 | 40032 ft | 524 kts | 202° |
| 2026-05-05 21:41 | 39.49570 | -117.52582 | 40035 ft | 523 kts | 202° |
| 2026-05-05 21:42 | 39.42876 | -117.56278 | 40027 ft | 523 kts | 202° |
| 2026-05-05 21:42 | 39.36187 | -117.59964 | 40028 ft | 523 kts | 202° |
| 2026-05-05 21:43 | 39.29500 | -117.63641 | 40034 ft | 522 kts | 202° |
| 2026-05-05 21:43 | 39.22813 | -117.67311 | 40032 ft | 521 kts | 202° |
| 2026-05-05 21:44 | 39.16145 | -117.70963 | 40030 ft | 521 kts | 202° |
| 2026-05-05 21:44 | 39.09427 | -117.74633 | 40017 ft | 520 kts | 202° |
| 2026-05-05 21:45 | 39.02814 | -117.78239 | 40022 ft | 520 kts | 202° |
| 2026-05-05 21:45 | 38.96116 | -117.81883 | 40020 ft | 519 kts | 202° |
| 2026-05-05 21:46 | 38.89459 | -117.85511 | 40032 ft | 519 kts | 202° |
| 2026-05-05 21:46 | 38.82853 | -117.89092 | 40029 ft | 518 kts | 202° |
| 2026-05-05 21:47 | 38.76174 | -117.92702 | 40019 ft | 517 kts | 202° |
| 2026-05-05 21:47 | 38.69549 | -117.96278 | 40020 ft | 517 kts | 202° |
| 2026-05-05 21:48 | 38.62914 | -117.99841 | 40019 ft | 516 kts | 202° |
| 2026-05-05 21:48 | 38.56563 | -118.03997 | 39988 ft | 518 kts | 212° |
| 2026-05-05 21:49 | 38.50795 | -118.09480 | 39997 ft | 517 kts | 221° |
| 2026-05-05 21:49 | 38.45323 | -118.15553 | 40009 ft | 518 kts | 221° |
| 2026-05-05 21:50 | 38.39872 | -118.21542 | 40011 ft | 517 kts | 221° |
| 2026-05-05 21:50 | 38.34399 | -118.27506 | 40012 ft | 518 kts | 221° |
| 2026-05-05 21:51 | 38.28927 | -118.33454 | 40016 ft | 518 kts | 220° |
| 2026-05-05 21:51 | 38.23437 | -118.39417 | 40017 ft | 518 kts | 220° |
| 2026-05-05 21:52 | 38.15201 | -118.48352 | 40025 ft | 519 kts | 220° |
| 2026-05-05 21:53 | 38.09691 | -118.54303 | 40031 ft | 520 kts | 220° |
| 2026-05-05 21:53 | 38.04171 | -118.60257 | 40033 ft | 521 kts | 220° |
| 2026-05-05 21:54 | 37.98649 | -118.66201 | 40037 ft | 522 kts | 220° |
| 2026-05-05 21:54 | 37.93122 | -118.72136 | 40076 ft | 520 kts | 220° |
| 2026-05-05 21:55 | 37.87619 | -118.78037 | 40058 ft | 519 kts | 220° |
| 2026-05-05 21:55 | 37.82111 | -118.83930 | 40069 ft | 518 kts | 220° |
| 2026-05-05 21:56 | 37.76611 | -118.89796 | 40069 ft | 518 kts | 220° |
| 2026-05-05 21:56 | 37.71110 | -118.95656 | 40068 ft | 517 kts | 220° |
| 2026-05-05 21:57 | 37.65610 | -119.01510 | 40076 ft | 518 kts | 220° |
| 2026-05-05 21:57 | 37.60104 | -119.07352 | 40057 ft | 517 kts | 220° |
| 2026-05-05 21:58 | 37.54608 | -119.13178 | 40046 ft | 515 kts | 220° |
| 2026-05-05 21:58 | 37.49109 | -119.18992 | 40036 ft | 516 kts | 220° |
| 2026-05-05 21:59 | 37.43599 | -119.24793 | 40028 ft | 516 kts | 220° |
| 2026-05-05 21:59 | 37.38096 | -119.30592 | 40031 ft | 516 kts | 220° |
| 2026-05-05 22:00 | 37.32591 | -119.36381 | 40042 ft | 516 kts | 220° |
| 2026-05-05 22:00 | 37.27114 | -119.42126 | 40049 ft | 516 kts | 220° |
| 2026-05-05 22:01 | 37.21604 | -119.47886 | 40057 ft | 516 kts | 220° |
| 2026-05-05 22:01 | 37.16070 | -119.53636 | 40039 ft | 516 kts | 217° |
| 2026-05-05 22:02 | 37.09786 | -119.57896 | 40046 ft | 515 kts | 198° |
| 2026-05-05 22:02 | 37.02802 | -119.59675 | 40042 ft | 512 kts | 181° |
| 2026-05-05 22:03 | 36.95696 | -119.59781 | 40042 ft | 511 kts | 179° |
| 2026-05-05 22:03 | 36.88592 | -119.59913 | 40044 ft | 510 kts | 180° |
| 2026-05-05 22:04 | 36.81495 | -119.60044 | 40036 ft | 510 kts | 180° |
| 2026-05-05 22:04 | 36.74393 | -119.60168 | 40043 ft | 510 kts | 180° |
| 2026-05-05 22:05 | 36.67303 | -119.60297 | 40043 ft | 509 kts | 180° |
| 2026-05-05 22:05 | 36.60225 | -119.60415 | 40027 ft | 509 kts | 180° |
| 2026-05-05 22:06 | 36.54352 | -119.60514 | 40028 ft | 508 kts | 180° |
| 2026-05-05 22:06 | 36.47282 | -119.60634 | 40032 ft | 507 kts | 180° |
| 2026-05-05 22:07 | 36.40227 | -119.60759 | 40041 ft | 507 kts | 180° |
| 2026-05-05 22:07 | 36.33193 | -119.60881 | 40046 ft | 507 kts | 180° |
| 2026-05-05 22:08 | 36.26147 | -119.61522 | 40042 ft | 507 kts | 190° |
| 2026-05-05 22:08 | 36.19196 | -119.63063 | 40038 ft | 508 kts | 190° |
| 2026-05-05 22:09 | 36.12183 | -119.64597 | 40062 ft | 509 kts | 190° |
| 2026-05-05 22:09 | 36.05209 | -119.66106 | 40059 ft | 509 kts | 190° |
| 2026-05-05 22:10 | 35.98232 | -119.67613 | 40056 ft | 508 kts | 190° |
| 2026-05-05 22:10 | 35.91274 | -119.69104 | 40056 ft | 508 kts | 190° |
| 2026-05-05 22:11 | 35.84316 | -119.70601 | 40060 ft | 507 kts | 191° |
| 2026-05-05 22:11 | 35.77367 | -119.72094 | 40057 ft | 507 kts | 190° |
| 2026-05-05 22:12 | 35.70422 | -119.73585 | 40054 ft | 507 kts | 190° |
| 2026-05-05 22:12 | 35.63473 | -119.75073 | 40058 ft | 506 kts | 190° |
| 2026-05-05 22:13 | 35.56561 | -119.76542 | 39741 ft | 500 kts | 190° |
| 2026-05-05 22:13 | 35.53146 | -119.77267 | 39499 ft | 496 kts | 190° |
| 2026-05-05 22:13 | 35.49752 | -119.77991 | 39247 ft | 497 kts | 190° |
| 2026-05-05 22:13 | 35.46347 | -119.78716 | 38988 ft | 497 kts | 191° |
| 2026-05-05 22:14 | 35.42928 | -119.79445 | 38751 ft | 498 kts | 190° |
| 2026-05-05 22:14 | 35.39519 | -119.80170 | 38491 ft | 498 kts | 190° |
| 2026-05-05 22:14 | 35.36096 | -119.80889 | 38250 ft | 499 kts | 188° |
| 2026-05-05 22:14 | 35.32635 | -119.81100 | 38004 ft | 500 kts | 176° |
| 2026-05-05 22:15 | 35.29218 | -119.80516 | 37557 ft | 499 kts | 165° |
| 2026-05-05 22:15 | 35.25911 | -119.79156 | 36816 ft | 499 kts | 154° |
| 2026-05-05 22:15 | 35.22900 | -119.77077 | 35948 ft | 498 kts | 142° |
| 2026-05-05 22:15 | 35.20144 | -119.74494 | 34962 ft | 501 kts | 139° |
| 2026-05-05 22:16 | 35.17418 | -119.71846 | 34266 ft | 498 kts | 139° |
| 2026-05-05 22:16 | 35.14712 | -119.69246 | 33837 ft | 490 kts | 139° |
| 2026-05-05 22:16 | 35.12047 | -119.66723 | 33366 ft | 483 kts | 139° |
| 2026-05-05 22:16 | 35.09385 | -119.64227 | 32716 ft | 481 kts | 139° |
| 2026-05-05 22:17 | 35.06737 | -119.61757 | 32132 ft | 478 kts | 139° |
| 2026-05-05 22:17 | 35.04105 | -119.59309 | 31510 ft | 474 kts | 139° |
| 2026-05-05 22:17 | 35.01486 | -119.56878 | 30907 ft | 471 kts | 139° |
| 2026-05-05 22:17 | 34.98888 | -119.54469 | 30295 ft | 467 kts | 138° |
| 2026-05-05 22:18 | 34.96309 | -119.52079 | 29682 ft | 464 kts | 138° |
| 2026-05-05 22:18 | 34.93753 | -119.49708 | 29076 ft | 460 kts | 138° |
| 2026-05-05 22:18 | 34.91216 | -119.47358 | 28472 ft | 456 kts | 139° |
| 2026-05-05 22:18 | 34.88686 | -119.45050 | 27877 ft | 452 kts | 140° |
| 2026-05-05 22:19 | 34.86157 | -119.42792 | 27275 ft | 449 kts | 140° |
| 2026-05-05 22:19 | 34.83649 | -119.40565 | 26675 ft | 445 kts | 141° |
| 2026-05-05 22:19 | 34.81163 | -119.38354 | 26172 ft | 440 kts | 141° |
| 2026-05-05 22:19 | 34.78696 | -119.36154 | 25384 ft | 441 kts | 141° |
| 2026-05-05 22:20 | 34.76238 | -119.33959 | 24955 ft | 433 kts | 141° |
| 2026-05-05 22:20 | 34.73845 | -119.31829 | 24732 ft | 421 kts | 142° |
| 2026-05-05 22:20 | 34.71481 | -119.29753 | 24043 ft | 421 kts | 142° |
| 2026-05-05 22:20 | 34.69097 | -119.27677 | 23487 ft | 419 kts | 143° |
| 2026-05-05 22:21 | 34.66750 | -119.25637 | 23046 ft | 413 kts | 143° |
| 2026-05-05 22:21 | 34.64428 | -119.23616 | 22505 ft | 409 kts | 143° |
| 2026-05-05 22:21 | 34.62115 | -119.21613 | 21965 ft | 406 kts | 143° |
| 2026-05-05 22:21 | 34.59818 | -119.19636 | 21421 ft | 403 kts | 143° |
| 2026-05-05 22:22 | 34.57542 | -119.17679 | 20899 ft | 399 kts | 143° |
| 2026-05-05 22:22 | 34.55289 | -119.15738 | 20366 ft | 396 kts | 143° |
| 2026-05-05 22:22 | 34.53075 | -119.13786 | 19849 ft | 393 kts | 143° |
| 2026-05-05 22:22 | 34.50879 | -119.11831 | 19308 ft | 389 kts | 143° |
| 2026-05-05 22:23 | 34.48709 | -119.09897 | 18802 ft | 386 kts | 143° |
| 2026-05-05 22:23 | 34.46547 | -119.07977 | 18274 ft | 383 kts | 143° |
| 2026-05-05 22:23 | 34.44407 | -119.06082 | 17767 ft | 380 kts | 143° |
| 2026-05-05 22:23 | 34.42282 | -119.04217 | 17310 ft | 375 kts | 144° |
| 2026-05-05 22:24 | 34.40172 | -119.02393 | 16783 ft | 371 kts | 144° |
| 2026-05-05 22:24 | 34.38073 | -119.00585 | 16238 ft | 369 kts | 144° |
| 2026-05-05 22:24 | 34.36003 | -118.98800 | 15698 ft | 367 kts | 144° |
| 2026-05-05 22:24 | 34.33938 | -118.97016 | 15208 ft | 363 kts | 144° |
| 2026-05-05 22:25 | 34.31914 | -118.95218 | 14725 ft | 359 kts | 143° |
| 2026-05-05 22:25 | 34.29929 | -118.93405 | 14244 ft | 355 kts | 143° |
| 2026-05-05 22:25 | 34.27974 | -118.91611 | 13766 ft | 352 kts | 143° |
| 2026-05-05 22:25 | 34.26034 | -118.89840 | 13296 ft | 348 kts | 143° |
| 2026-05-05 22:26 | 34.24101 | -118.88078 | 12842 ft | 345 kts | 143° |
| 2026-05-05 22:26 | 34.22204 | -118.86330 | 12408 ft | 342 kts | 143° |
| 2026-05-05 22:26 | 34.20350 | -118.84622 | 12270 ft | 328 kts | 143° |
| 2026-05-05 22:26 | 34.18577 | -118.82984 | 12147 ft | 315 kts | 143° |
| 2026-05-05 22:27 | 34.16856 | -118.81402 | 12004 ft | 305 kts | 143° |
| 2026-05-05 22:27 | 34.15261 | -118.79761 | 11706 ft | 307 kts | 138° |
| 2026-05-05 22:27 | 34.13660 | -118.78010 | 11411 ft | 307 kts | 138° |
| 2026-05-05 22:27 | 34.12105 | -118.76309 | 11270 ft | 299 kts | 138° |
| 2026-05-05 22:28 | 34.10599 | -118.74666 | 11145 ft | 288 kts | 138° |
| 2026-05-05 22:28 | 34.09140 | -118.73071 | 11006 ft | 273 kts | 138° |
| 2026-05-05 22:28 | 34.07772 | -118.71572 | 10857 ft | 261 kts | 138° |
| 2026-05-05 22:28 | 34.06430 | -118.70120 | 10468 ft | 258 kts | 139° |
| 2026-05-05 22:29 | 34.05092 | -118.68676 | 10049 ft | 256 kts | 139° |
| 2026-05-05 22:29 | 34.03779 | -118.67230 | 9597 ft | 256 kts | 132° |
| 2026-05-05 22:29 | 34.02916 | -118.65390 | 9354 ft | 254 kts | 104° |
| 2026-05-05 22:29 | 34.02679 | -118.63293 | 9133 ft | 252 kts | 95° |
| 2026-05-05 22:30 | 34.02494 | -118.61201 | 8880 ft | 250 kts | 96° |
| 2026-05-05 22:30 | 34.02297 | -118.59137 | 8654 ft | 248 kts | 96° |
| 2026-05-05 22:30 | 34.02098 | -118.57080 | 8424 ft | 247 kts | 97° |
| 2026-05-05 22:30 | 34.01900 | -118.55037 | 8176 ft | 245 kts | 96° |
| 2026-05-05 22:31 | 34.01705 | -118.52996 | 7968 ft | 244 kts | 96° |
| 2026-05-05 22:31 | 34.01513 | -118.50969 | 7730 ft | 243 kts | 96° |
| 2026-05-05 22:31 | 34.01321 | -118.48938 | 7493 ft | 244 kts | 97° |
| 2026-05-05 22:31 | 34.01130 | -118.46916 | 7259 ft | 243 kts | 96° |
| 2026-05-05 22:32 | 34.01142 | -118.44925 | 7036 ft | 241 kts | 82° |
| 2026-05-05 22:32 | 34.01490 | -118.42928 | 6800 ft | 242 kts | 77° |
| 2026-05-05 22:32 | 34.01845 | -118.40955 | 6574 ft | 240 kts | 78° |
| 2026-05-05 22:32 | 34.02184 | -118.38987 | 6347 ft | 239 kts | 78° |
| 2026-05-05 22:33 | 34.02519 | -118.37025 | 6102 ft | 238 kts | 78° |
| 2026-05-05 22:33 | 34.02815 | -118.35045 | 5994 ft | 236 kts | 83° |
| 2026-05-05 22:33 | 34.03000 | -118.33088 | 5993 ft | 236 kts | 83° |
| 2026-05-05 22:33 | 34.03198 | -118.31110 | 5994 ft | 238 kts | 83° |
| 2026-05-05 22:34 | 34.03399 | -118.29135 | 5985 ft | 238 kts | 83° |
| 2026-05-05 22:34 | 34.03596 | -118.27158 | 5767 ft | 242 kts | 83° |
| 2026-05-05 22:34 | 34.03800 | -118.25140 | 5624 ft | 238 kts | 83° |
| 2026-05-05 22:34 | 34.04002 | -118.23162 | 5479 ft | 237 kts | 83° |
| 2026-05-05 22:35 | 34.04198 | -118.21194 | 5360 ft | 235 kts | 83° |
| 2026-05-05 22:35 | 34.04393 | -118.19236 | 5238 ft | 235 kts | 83° |
| 2026-05-05 22:35 | 34.04587 | -118.17285 | 5099 ft | 233 kts | 83° |
| 2026-05-05 22:35 | 34.04785 | -118.15352 | 4844 ft | 233 kts | 83° |
| 2026-05-05 22:36 | 34.04984 | -118.13420 | 4614 ft | 232 kts | 83° |
| 2026-05-05 22:36 | 34.04884 | -118.11503 | 4350 ft | 230 kts | 111° |
| 2026-05-05 22:36 | 34.03987 | -118.09959 | 4110 ft | 226 kts | 144° |
| 2026-05-05 22:36 | 34.02566 | -118.09256 | 3998 ft | 221 kts | 171° |
| 2026-05-05 22:37 | 34.01041 | -118.08972 | 3992 ft | 222 kts | 181° |
| 2026-05-05 22:37 | 33.99579 | -118.09442 | 4000 ft | 219 kts | 214° |
| 2026-05-05 22:37 | 33.98537 | -118.10743 | 3984 ft | 217 kts | 243° |
| 2026-05-05 22:37 | 33.98073 | -118.12432 | 3983 ft | 208 kts | 259° |
| 2026-05-05 22:38 | 33.97879 | -118.14105 | 3984 ft | 193 kts | 263° |
| 2026-05-05 22:38 | 33.97735 | -118.15645 | 3991 ft | 184 kts | 263° |
| 2026-05-05 22:38 | 33.97576 | -118.17179 | 3839 ft | 186 kts | 262° |
| 2026-05-05 22:38 | 33.97414 | -118.18724 | 3586 ft | 186 kts | 262° |
| 2026-05-05 22:39 | 33.97258 | -118.20269 | 3338 ft | 185 kts | 262° |
| 2026-05-05 22:39 | 33.97100 | -118.21805 | 3092 ft | 184 kts | 262° |
| 2026-05-05 22:39 | 33.96941 | -118.23338 | 2840 ft | 184 kts | 262° |
| 2026-05-05 22:39 | 33.96787 | -118.24857 | 2588 ft | 182 kts | 262° |
| 2026-05-05 22:40 | 33.96631 | -118.26358 | 2353 ft | 180 kts | 263° |
| 2026-05-05 22:40 | 33.96479 | -118.27844 | 2125 ft | 177 kts | 263° |
| 2026-05-05 22:40 | 33.96333 | -118.29281 | 1877 ft | 164 kts | 263° |
| 2026-05-05 22:40 | 33.96205 | -118.30533 | 1685 ft | 142 kts | 262° |
| 2026-05-05 22:41 | 33.96088 | -118.31657 | 1498 ft | 131 kts | 263° |
| 2026-05-05 22:41 | 33.95975 | -118.32742 | 1328 ft | 130 kts | 263° |
| 2026-05-05 22:41 | 33.95867 | -118.33824 | 1157 ft | 130 kts | 263° |
| 2026-05-05 22:41 | 33.95760 | -118.34893 | 988 ft | 128 kts | 260° |
| 2026-05-05 22:42 | 33.95642 | -118.35968 | 813 ft | 129 kts | 263° |
| 2026-05-05 22:42 | 33.95536 | -118.37043 | 639 ft | 130 kts | 262° |
| 2026-05-05 22:42 | 33.95426 | -118.38100 | 469 ft | 123 kts | 260° |
| 2026-05-05 22:42 | 33.95365 | -118.38771 | 367 ft | 120 kts | 261° |
| 2026-05-05 22:43 | 33.95253 | -118.39801 | 214 ft | 123 kts | 260° |
| 2026-05-05 22:43 | 33.95149 | -118.40835 | 105 ft | 118 kts | 261° |
| 2026-05-05 22:43 | 33.95062 | -118.41660 | 101 ft | 81 kts | 262° |
| 2026-05-05 22:43 | 33.95010 | -118.42181 | 100 ft | 41 kts | 263° |
| 2026-05-05 22:44 | 33.94961 | -118.42475 | 98 ft | 32 kts | 249° |
| 2026-05-05 22:44 | 33.94874 | -118.42645 | 100 ft | 12 kts | 228° |
| 2026-05-05 22:44 | 33.94815 | -118.42716 | 104 ft | 12 kts | 218° |
| 2026-05-05 22:44 | 33.94735 | -118.42768 | 104 ft | 15 kts | 195° |
| 2026-05-05 22:45 | 33.94640 | -118.42776 | 100 ft | 11 kts | 177° |
| 2026-05-05 22:45 | 33.94581 | -118.42757 | 100 ft | 9 kts | 134° |
| 2026-05-05 22:45 | 33.94563 | -118.42672 | 98 ft | 15 kts | 86° |
| 2026-05-05 22:45 | 33.94577 | -118.42521 | 98 ft | 21 kts | 83° |
| 2026-05-05 22:46 | 33.94595 | -118.42332 | 98 ft | 24 kts | 84° |
| 2026-05-05 22:46 | 33.94611 | -118.42162 | 98 ft | 19 kts | 83° |
| 2026-05-05 22:46 | 33.94625 | -118.42026 | 98 ft | 15 kts | 85° |
| 2026-05-05 22:46 | 33.94630 | -118.41894 | 98 ft | 16 kts | 86° |
| 2026-05-05 22:47 | 33.94644 | -118.41742 | 98 ft | 20 kts | 83° |
| 2026-05-05 22:47 | 33.94659 | -118.41594 | 101 ft | 16 kts | 83° |
| 2026-05-05 22:47 | 33.94673 | -118.41461 | 98 ft | 16 kts | 83° |
| 2026-05-05 22:47 | 33.94683 | -118.41366 | 98 ft | 7 kts | 83° |
| 2026-05-05 22:48 | 33.94675 | -118.41305 | 99 ft | 7 kts | 130° |
| 2026-05-05 22:48 | 33.94616 | -118.41273 | 99 ft | 12 kts | 172° |
| 2026-05-05 22:48 | 33.94516 | -118.41258 | 98 ft | 16 kts | 173° |
| 2026-05-05 22:48 | 33.94402 | -118.41242 | 98 ft | 16 kts | 173° |
| 2026-05-05 22:49 | 33.94311 | -118.41228 | 99 ft | 13 kts | 172° |
| 2026-05-05 22:49 | 33.94237 | -118.41217 | 98 ft | 10 kts | 172° |
| 2026-05-05 22:49 | 33.94156 | -118.41204 | 100 ft | 12 kts | 173° |
| 2026-05-05 22:49 | 33.94072 | -118.41191 | 98 ft | 11 kts | 173° |
| 2026-05-05 22:50 | 33.94046 | -118.41188 | 99 ft | 0 kts | 173° |
| 2026-05-05 22:50 | 33.94037 | -118.41186 | 98 ft | 0 kts | 173° |
| 2026-05-05 22:51 | 33.94031 | -118.41185 | 98 ft | 1 kts | 154° |
| 2026-05-05 22:51 | 33.94025 | -118.41179 | 100 ft | 2 kts | 121° |
| 2026-05-05 22:52 | 33.94016 | -118.41135 | 98 ft | 4 kts | 90° |
| 2026-05-05 22:52 | 33.94018 | -118.41106 | 98 ft | 3 kts | 83° |
| 2026-05-05 22:52 | 33.94020 | -118.41088 | 99 ft | 2 kts | 83° |
| 2026-05-05 22:52 | 33.94020 | -118.41079 | 98 ft | 0 kts | 83° |
| 2026-05-05 22:53 | 33.94021 | -118.41078 | 98 ft | 0 kts | 83° |
| 2026-05-05 23:12 | 33.94020 | -118.41078 | 98 ft | 0 kts | 83° |